<?xml version='1.0' encoding='UTF-8'?><gpx version="1.1" creator="JPX - https://github.com/jenetics/jpx" xmlns="http://www.topografix.com/GPX/1/1"><trk><trkseg><trkpt lat="41.85197191666929" lon="13.820344796260802"><ele>1877.0</ele><time>2026-05-03T15:27:48Z</time></trkpt><trkpt lat="41.851987891236135" lon="13.820482384028034"><ele>1876.9999999999998</ele><time>2026-05-03T15:27:50Z</time></trkpt><trkpt lat="41.85203464659201" lon="13.820599166131865"><ele>1876.9999999999998</ele><time>2026-05-03T15:27:52Z</time></trkpt><trkpt lat="41.852108771843696" lon="13.82068273145777"><ele>1877.0</ele><time>2026-05-03T15:27:54Z</time></trkpt><trkpt lat="41.852175101541704" lon="13.820770807661061"><ele>1877.0</ele><time>2026-05-03T15:27:56Z</time></trkpt><trkpt lat="41.852223940380995" lon="13.82086962282799"><ele>1876.9999999999998</ele><time>2026-05-03T15:27:58Z</time></trkpt><trkpt lat="41.85226242603206" lon="13.820972452775083"><ele>1877.0</ele><time>2026-05-03T15:28:00Z</time></trkpt><trkpt lat="41.85231724298411" lon="13.821068513346567"><ele>1877.0</ele><time>2026-05-03T15:28:02Z</time></trkpt><trkpt lat="41.85237247265273" lon="13.82112310464929"><ele>1877.0</ele><time>2026-05-03T15:28:04Z</time></trkpt><trkpt lat="41.85238408946013" lon="13.82120777020754"><ele>1876.9999999999998</ele><time>2026-05-03T15:28:06Z</time></trkpt><trkpt lat="41.85238124363069" lon="13.821302929320982"><ele>1877.0</ele><time>2026-05-03T15:28:08Z</time></trkpt><trkpt lat="41.85240788312528" lon="13.821415977316539"><ele>1875.3333333333333</ele><time>2026-05-03T15:28:10Z</time></trkpt><trkpt lat="41.852450909818195" lon="13.82151599091286"><ele>1873.6666666666665</ele><time>2026-05-03T15:28:12Z</time></trkpt><trkpt lat="41.85248534296138" lon="13.82162508868289"><ele>1872.0</ele><time>2026-05-03T15:28:14Z</time></trkpt><trkpt lat="41.852516415460826" lon="13.821721945578899"><ele>1870.3333333333335</ele><time>2026-05-03T15:28:16Z</time></trkpt><trkpt lat="41.85254355448225" lon="13.82182606195464"><ele>1868.6666666666667</ele><time>2026-05-03T15:28:18Z</time></trkpt><trkpt lat="41.852581369348925" lon="13.821910549248296"><ele>1867.0</ele><time>2026-05-03T15:28:20Z</time></trkpt><trkpt lat="41.85263966406939" lon="13.821986103571204"><ele>1864.142857142857</ele><time>2026-05-03T15:28:23Z</time></trkpt><trkpt lat="41.85270287594037" lon="13.822021253984826"><ele>1861.2857142857142</ele><time>2026-05-03T15:28:25.999Z</time></trkpt><trkpt lat="41.852767382260765" lon="13.822039420722112"><ele>1858.4285714285713</ele><time>2026-05-03T15:28:28.999Z</time></trkpt><trkpt lat="41.85282514453405" lon="13.822093348816132"><ele>1855.5714285714284</ele><time>2026-05-03T15:28:37.999Z</time></trkpt><trkpt lat="41.85284289896235" lon="13.822186465266073"><ele>1852.7142857142858</ele><time>2026-05-03T15:29:22Z</time></trkpt><trkpt lat="41.85285665867388" lon="13.822271089071426"><ele>1849.8571428571427</ele><time>2026-05-03T15:29:56Z</time></trkpt><trkpt lat="41.8529019683364" lon="13.822340949917137"><ele>1846.9999999999998</ele><time>2026-05-03T15:30:14Z</time></trkpt><trkpt lat="41.85293875308149" lon="13.82243557895023"><ele>1846.9999999999998</ele><time>2026-05-03T15:30:22Z</time></trkpt><trkpt lat="41.853010837746936" lon="13.82250899970583"><ele>1847.0</ele><time>2026-05-03T15:30:26.999Z</time></trkpt><trkpt lat="41.85304556470523" lon="13.822593246889612"><ele>1847.0</ele><time>2026-05-03T15:30:28.999Z</time></trkpt><trkpt lat="41.85307703255977" lon="13.822674198348134"><ele>1847.0</ele><time>2026-05-03T15:30:31.999Z</time></trkpt><trkpt lat="41.85312994158221" lon="13.82275135531532"><ele>1846.9999999999998</ele><time>2026-05-03T15:30:35.999Z</time></trkpt><trkpt lat="41.853162807285756" lon="13.822851834068548"><ele>1847.0</ele><time>2026-05-03T15:30:47.999Z</time></trkpt><trkpt lat="41.853153582379484" lon="13.822940872341588"><ele>1846.7142857142853</ele><time>2026-05-03T15:30:49.999Z</time></trkpt><trkpt lat="41.85316760965909" lon="13.823028724079647"><ele>1846.4285714285713</ele><time>2026-05-03T15:30:51.999Z</time></trkpt><trkpt lat="41.853209223295416" lon="13.823134611307724"><ele>1846.1428571428569</ele><time>2026-05-03T15:30:53.999Z</time></trkpt><trkpt lat="41.85322651890799" lon="13.82322580509789"><ele>1845.8571428571427</ele><time>2026-05-03T15:30:55.999Z</time></trkpt><trkpt lat="41.853247949261984" lon="13.82332741985909"><ele>1845.5714285714284</ele><time>2026-05-03T15:30:58.999Z</time></trkpt><trkpt lat="41.85327874574124" lon="13.82340283549292"><ele>1845.2857142857142</ele><time>2026-05-03T15:31:03.999Z</time></trkpt><trkpt lat="41.85331680597025" lon="13.823484585533532"><ele>1845.0</ele><time>2026-05-03T15:31:08.999Z</time></trkpt><trkpt lat="41.8533776419525" lon="13.823538586348917"><ele>1843.0</ele><time>2026-05-03T15:31:15.999Z</time></trkpt><trkpt lat="41.85342380849043" lon="13.82359972588968"><ele>1841.0</ele><time>2026-05-03T15:31:25Z</time></trkpt><trkpt lat="41.8534681551598" lon="13.823686472401764"><ele>1839.0</ele><time>2026-05-03T15:31:29Z</time></trkpt><trkpt lat="41.85353040229691" lon="13.82377240721339"><ele>1837.0</ele><time>2026-05-03T15:31:32Z</time></trkpt><trkpt lat="41.853576375840454" lon="13.823887653808944"><ele>1835.0</ele><time>2026-05-03T15:31:35Z</time></trkpt><trkpt lat="41.853604597656506" lon="13.823980298295204"><ele>1833.0</ele><time>2026-05-03T15:31:37Z</time></trkpt><trkpt lat="41.85357357178987" lon="13.824075095269622"><ele>1832.8000000000002</ele><time>2026-05-03T15:31:39Z</time></trkpt><trkpt lat="41.85352712044284" lon="13.82419991625448"><ele>1832.6000000000001</ele><time>2026-05-03T15:31:41Z</time></trkpt><trkpt lat="41.8534940284057" lon="13.824340334946063"><ele>1832.3999999999999</ele><time>2026-05-03T15:31:43Z</time></trkpt><trkpt lat="41.85350006327771" lon="13.824461383676018"><ele>1832.1999999999998</ele><time>2026-05-03T15:31:45Z</time></trkpt><trkpt lat="41.85351547004209" lon="13.824593539938393"><ele>1832.0</ele><time>2026-05-03T15:31:47Z</time></trkpt><trkpt lat="41.85353084802138" lon="13.824692608039356"><ele>1829.9999999999998</ele><time>2026-05-03T15:31:48Z</time></trkpt><trkpt lat="41.85353714366663" lon="13.824784025115008"><ele>1828.0</ele><time>2026-05-03T15:31:49Z</time></trkpt><trkpt lat="41.85353801416876" lon="13.824876331760402"><ele>1826.0</ele><time>2026-05-03T15:31:50Z</time></trkpt><trkpt lat="41.85352990530903" lon="13.824969823692465"><ele>1824.0</ele><time>2026-05-03T15:31:51Z</time></trkpt><trkpt lat="41.85350482799537" lon="13.825050548791092"><ele>1821.9999999999998</ele><time>2026-05-03T15:31:52Z</time></trkpt><trkpt lat="41.85347154842962" lon="13.82514337540126"><ele>1820.0</ele><time>2026-05-03T15:31:53Z</time></trkpt><trkpt lat="41.853427846557445" lon="13.825285985917851"><ele>1816.0</ele><time>2026-05-03T15:31:55Z</time></trkpt><trkpt lat="41.85337641765228" lon="13.825429113254222"><ele>1812.0</ele><time>2026-05-03T15:31:57Z</time></trkpt><trkpt lat="41.85329832870087" lon="13.825563417453894"><ele>1808.0</ele><time>2026-05-03T15:31:59Z</time></trkpt><trkpt lat="41.85323765620068" lon="13.825685749349695"><ele>1804.0</ele><time>2026-05-03T15:32:01Z</time></trkpt><trkpt lat="41.85319011389109" lon="13.82581451284504"><ele>1804.0000000000002</ele><time>2026-05-03T15:32:03Z</time></trkpt><trkpt lat="41.853168545095414" lon="13.82591916508603"><ele>1804.0</ele><time>2026-05-03T15:32:07Z</time></trkpt><trkpt lat="41.853129937777126" lon="13.826017227740678"><ele>1804.0</ele><time>2026-05-03T15:32:11Z</time></trkpt><trkpt lat="41.853086923793064" lon="13.826129673848449"><ele>1804.0</ele><time>2026-05-03T15:32:14Z</time></trkpt><trkpt lat="41.8530663803503" lon="13.826220868984397"><ele>1804.0000000000002</ele><time>2026-05-03T15:32:17Z</time></trkpt><trkpt lat="41.853008409429364" lon="13.826255456273884"><ele>1804.0</ele><time>2026-05-03T15:32:22Z</time></trkpt><trkpt lat="41.852854492270794" lon="13.826234015318523"><ele>1803.4285714285713</ele><time>2026-05-03T15:32:25Z</time></trkpt><trkpt lat="41.85278462720272" lon="13.826227870615384"><ele>1802.8571428571431</ele><time>2026-05-03T15:32:26Z</time></trkpt><trkpt lat="41.8527089366638" lon="13.826201836278456"><ele>1802.2857142857144</ele><time>2026-05-03T15:32:28Z</time></trkpt><trkpt lat="41.85264308394576" lon="13.826179944176307"><ele>1801.7142857142858</ele><time>2026-05-03T15:32:35.999Z</time></trkpt><trkpt lat="41.85257336120566" lon="13.826185810381556"><ele>1801.1428571428573</ele><time>2026-05-03T15:32:43.999Z</time></trkpt><trkpt lat="41.85250466328031" lon="13.826174875949448"><ele>1800.571428571429</ele><time>2026-05-03T15:32:48.999Z</time></trkpt><trkpt lat="41.85257823290281" lon="13.826177557790992"><ele>1800.0000000000002</ele><time>2026-05-03T15:32:58.999Z</time></trkpt><trkpt lat="41.85264556099751" lon="13.826184204520107"><ele>1800.0</ele><time>2026-05-03T15:33:04.999Z</time></trkpt><trkpt lat="41.852710710136684" lon="13.82618867475679"><ele>1800.0</ele><time>2026-05-03T15:33:09.999Z</time></trkpt><trkpt lat="41.85269363776407" lon="13.826320758389086"><ele>1800.0</ele><time>2026-05-03T15:33:29Z</time></trkpt><trkpt lat="41.85263620689937" lon="13.826425563294443"><ele>1800.0</ele><time>2026-05-03T15:33:31Z</time></trkpt><trkpt lat="41.852522933145096" lon="13.826432816018626"><ele>1800.0</ele><time>2026-05-03T15:33:33Z</time></trkpt><trkpt lat="41.85245041026795" lon="13.826480551106004"><ele>1798.3333333333333</ele><time>2026-05-03T15:33:35Z</time></trkpt><trkpt lat="41.85238604996991" lon="13.8265585409463"><ele>1796.6666666666665</ele><time>2026-05-03T15:33:37Z</time></trkpt><trkpt lat="41.85231809024525" lon="13.826576649371955"><ele>1795.0</ele><time>2026-05-03T15:33:39Z</time></trkpt><trkpt lat="41.852221563653764" lon="13.826538387101195"><ele>1793.3333333333333</ele><time>2026-05-03T15:33:41Z</time></trkpt><trkpt lat="41.85215532641948" lon="13.826494038499423"><ele>1791.6666666666665</ele><time>2026-05-03T15:33:43Z</time></trkpt><trkpt lat="41.85208068779502" lon="13.826479853046855"><ele>1790.0</ele><time>2026-05-03T15:33:45Z</time></trkpt><trkpt lat="41.852014387267715" lon="13.826483062558937"><ele>1789.9999999999998</ele><time>2026-05-03T15:33:48Z</time></trkpt><trkpt lat="41.85192113973793" lon="13.826436072709338"><ele>1790.0</ele><time>2026-05-03T15:33:51Z</time></trkpt><trkpt lat="41.8518680789986" lon="13.826344524808695"><ele>1790.0</ele><time>2026-05-03T15:33:54Z</time></trkpt><trkpt lat="41.85176748434574" lon="13.826277550060851"><ele>1790.0</ele><time>2026-05-03T15:33:56Z</time></trkpt><trkpt lat="41.85170015065754" lon="13.82624612746908"><ele>1789.9999999999998</ele><time>2026-05-03T15:33:58Z</time></trkpt><trkpt lat="41.851656630498034" lon="13.826180467108411"><ele>1790.0</ele><time>2026-05-03T15:33:59Z</time></trkpt><trkpt lat="41.8515798687197" lon="13.826117466417337"><ele>1788.1666666666665</ele><time>2026-05-03T15:34:01Z</time></trkpt><trkpt lat="41.851507910904324" lon="13.826059925948341"><ele>1786.3333333333333</ele><time>2026-05-03T15:34:03Z</time></trkpt><trkpt lat="41.85147517570446" lon="13.82598267189376"><ele>1784.5</ele><time>2026-05-03T15:34:05Z</time></trkpt><trkpt lat="41.851399836303315" lon="13.825913566069888"><ele>1782.6666666666665</ele><time>2026-05-03T15:34:08Z</time></trkpt><trkpt lat="41.85138149105727" lon="13.82583223121764"><ele>1780.8333333333333</ele><time>2026-05-03T15:34:12Z</time></trkpt><trkpt lat="41.85134001798258" lon="13.825764244244068"><ele>1779.0</ele><time>2026-05-03T15:34:17Z</time></trkpt><trkpt lat="41.8512836454609" lon="13.825678433184581"><ele>1778.2</ele><time>2026-05-03T15:34:21Z</time></trkpt><trkpt lat="41.851204473889446" lon="13.825631032905166"><ele>1777.4</ele><time>2026-05-03T15:34:23Z</time></trkpt><trkpt lat="41.851115226167444" lon="13.825595735858753"><ele>1776.6</ele><time>2026-05-03T15:34:26Z</time></trkpt><trkpt lat="41.851015649187474" lon="13.825544648007815"><ele>1775.8</ele><time>2026-05-03T15:34:29Z</time></trkpt><trkpt lat="41.8509506525991" lon="13.825510319795159"><ele>1775.0</ele><time>2026-05-03T15:34:32Z</time></trkpt><trkpt lat="41.85084893159478" lon="13.825531272805872"><ele>1769.8333333333333</ele><time>2026-05-03T15:34:36Z</time></trkpt><trkpt lat="41.85075163953227" lon="13.825524925937207"><ele>1764.6666666666665</ele><time>2026-05-03T15:34:37.999Z</time></trkpt><trkpt lat="41.85068978795546" lon="13.825494886716307"><ele>1759.5</ele><time>2026-05-03T15:34:41.999Z</time></trkpt><trkpt lat="41.85059631710568" lon="13.825459801316926"><ele>1754.3333333333335</ele><time>2026-05-03T15:34:44.999Z</time></trkpt><trkpt lat="41.850501388647686" lon="13.825438064464489"><ele>1749.1666666666667</ele><time>2026-05-03T15:34:45.999Z</time></trkpt><trkpt lat="41.850414594955964" lon="13.82540081479128"><ele>1744.0</ele><time>2026-05-03T15:34:46.999Z</time></trkpt><trkpt lat="41.85033504278373" lon="13.825382477065514"><ele>1744.0000000000002</ele><time>2026-05-03T15:34:47.999Z</time></trkpt><trkpt lat="41.85024562362255" lon="13.825370759933849"><ele>1744.0</ele><time>2026-05-03T15:34:48.999Z</time></trkpt><trkpt lat="41.85016711283077" lon="13.82537058852013"><ele>1744.0</ele><time>2026-05-03T15:34:49.999Z</time></trkpt><trkpt lat="41.850094236292975" lon="13.82543718265453"><ele>1744.0</ele><time>2026-05-03T15:34:51.999Z</time></trkpt><trkpt lat="41.85005165953384" lon="13.825531178194549"><ele>1744.0000000000002</ele><time>2026-05-03T15:34:53.999Z</time></trkpt><trkpt lat="41.849965695306814" lon="13.825557526570174"><ele>1744.0</ele><time>2026-05-03T15:34:55.999Z</time></trkpt><trkpt lat="41.84987905883882" lon="13.825533941739117"><ele>1737.6</ele><time>2026-05-03T15:34:57.999Z</time></trkpt><trkpt lat="41.84980102871709" lon="13.825510459783798"><ele>1731.2</ele><time>2026-05-03T15:35:04.999Z</time></trkpt><trkpt lat="41.84973000742418" lon="13.825431548632471"><ele>1724.7999999999997</ele><time>2026-05-03T15:35:06.999Z</time></trkpt><trkpt lat="41.84963348130521" lon="13.825353676536354"><ele>1718.3999999999999</ele><time>2026-05-03T15:35:08.999Z</time></trkpt><trkpt lat="41.84952006545091" lon="13.825377745698033"><ele>1712.0</ele><time>2026-05-03T15:35:16.999Z</time></trkpt><trkpt lat="41.84950580782349" lon="13.825526995266845"><ele>1712.0</ele><time>2026-05-03T15:35:21.999Z</time></trkpt><trkpt lat="41.849400089478294" lon="13.82562705328456"><ele>1711.9999999999998</ele><time>2026-05-03T15:35:23.999Z</time></trkpt><trkpt lat="41.84933842488783" lon="13.825658673627391"><ele>1711.9999999999998</ele><time>2026-05-03T15:35:24.999Z</time></trkpt><trkpt lat="41.849255737388134" lon="13.825678967184695"><ele>1712.0</ele><time>2026-05-03T15:35:25.999Z</time></trkpt><trkpt lat="41.84918616063021" lon="13.825781897606273"><ele>1712.0</ele><time>2026-05-03T15:35:27.999Z</time></trkpt><trkpt lat="41.84906535960322" lon="13.825848394495074"><ele>1708.1999999999998</ele><time>2026-05-03T15:35:29.999Z</time></trkpt><trkpt lat="41.848999146433826" lon="13.825908780141008"><ele>1704.3999999999999</ele><time>2026-05-03T15:35:30.999Z</time></trkpt><trkpt lat="41.848908881055806" lon="13.825956195032026"><ele>1700.6</ele><time>2026-05-03T15:35:33.999Z</time></trkpt><trkpt lat="41.8487999515706" lon="13.82591048235387"><ele>1696.8000000000002</ele><time>2026-05-03T15:35:36Z</time></trkpt><trkpt lat="41.84865525951693" lon="13.825897520885626"><ele>1693.0</ele><time>2026-05-03T15:35:38Z</time></trkpt><trkpt lat="41.848587242685056" lon="13.825908422323943"><ele>1693.0</ele><time>2026-05-03T15:35:39Z</time></trkpt><trkpt lat="41.848521623476266" lon="13.825890163455611"><ele>1693.0</ele><time>2026-05-03T15:35:40Z</time></trkpt><trkpt lat="41.84845176603624" lon="13.825904473051738"><ele>1693.0</ele><time>2026-05-03T15:35:41Z</time></trkpt><trkpt lat="41.84836956851173" lon="13.825898062676734"><ele>1693.0</ele><time>2026-05-03T15:35:42Z</time></trkpt><trkpt lat="41.84829673159442" lon="13.825892492357033"><ele>1693.0</ele><time>2026-05-03T15:35:43Z</time></trkpt><trkpt lat="41.848216881923676" lon="13.825903655812347"><ele>1693.0</ele><time>2026-05-03T15:35:44Z</time></trkpt><trkpt lat="41.84814556669901" lon="13.825901582695511"><ele>1693.0</ele><time>2026-05-03T15:35:45Z</time></trkpt><trkpt lat="41.848074121019636" lon="13.825921185092128"><ele>1693.0</ele><time>2026-05-03T15:35:46Z</time></trkpt><trkpt lat="41.84797188321092" lon="13.82598537193987"><ele>1693.0</ele><time>2026-05-03T15:35:48Z</time></trkpt><trkpt lat="41.847903722455456" lon="13.82601110908353"><ele>1693.0</ele><time>2026-05-03T15:35:49Z</time></trkpt><trkpt lat="41.84780726457936" lon="13.826033292408452"><ele>1693.0</ele><time>2026-05-03T15:35:50Z</time></trkpt><trkpt lat="41.847739983325" lon="13.826034008659269"><ele>1693.0</ele><time>2026-05-03T15:35:51Z</time></trkpt><trkpt lat="41.84763893341209" lon="13.826048038403567"><ele>1689.3333333333335</ele><time>2026-05-03T15:35:52Z</time></trkpt><trkpt lat="41.84757200650957" lon="13.82603954952591"><ele>1685.6666666666667</ele><time>2026-05-03T15:35:53Z</time></trkpt><trkpt lat="41.84748412257192" lon="13.825998400389398"><ele>1682.0</ele><time>2026-05-03T15:35:54Z</time></trkpt><trkpt lat="41.847392422351234" lon="13.825987710585954"><ele>1678.3333333333335</ele><time>2026-05-03T15:35:55Z</time></trkpt><trkpt lat="41.84732083908062" lon="13.825994442026063"><ele>1674.6666666666667</ele><time>2026-05-03T15:35:56Z</time></trkpt><trkpt lat="41.84724924871725" lon="13.826022309786637"><ele>1671.0</ele><time>2026-05-03T15:35:57Z</time></trkpt><trkpt lat="41.84716533048311" lon="13.826030219597326"><ele>1671.0</ele><time>2026-05-03T15:35:58Z</time></trkpt><trkpt lat="41.84710258479359" lon="13.82605987993012"><ele>1671.0</ele><time>2026-05-03T15:35:59Z</time></trkpt><trkpt lat="41.84699809470044" lon="13.826070053154435"><ele>1671.0</ele><time>2026-05-03T15:36:01Z</time></trkpt><trkpt lat="41.846943973087676" lon="13.82602333781339"><ele>1671.0</ele><time>2026-05-03T15:36:03Z</time></trkpt><trkpt lat="41.84686558686938" lon="13.825987010500487"><ele>1671.0</ele><time>2026-05-03T15:36:05Z</time></trkpt><trkpt lat="41.84676713220426" lon="13.825946771211873"><ele>1671.0</ele><time>2026-05-03T15:36:08Z</time></trkpt><trkpt lat="41.84666806055012" lon="13.825967063577485"><ele>1666.8333333333333</ele><time>2026-05-03T15:36:10Z</time></trkpt><trkpt lat="41.84659878636931" lon="13.825967380401591"><ele>1662.6666666666665</ele><time>2026-05-03T15:36:12Z</time></trkpt><trkpt lat="41.846529353344216" lon="13.826006244979508"><ele>1658.5</ele><time>2026-05-03T15:36:19Z</time></trkpt><trkpt lat="41.846452816554496" lon="13.826024362708635"><ele>1654.3333333333333</ele><time>2026-05-03T15:36:22Z</time></trkpt><trkpt lat="41.84634875333167" lon="13.826058500876764"><ele>1650.1666666666665</ele><time>2026-05-03T15:36:27Z</time></trkpt><trkpt lat="41.84627825776406" lon="13.826080651363622"><ele>1646.0</ele><time>2026-05-03T15:36:38Z</time></trkpt><trkpt lat="41.84623440696437" lon="13.826017258500732"><ele>1645.6666666666665</ele><time>2026-05-03T15:37:37.999Z</time></trkpt><trkpt lat="41.84613462277709" lon="13.826027422027058"><ele>1645.3333333333333</ele><time>2026-05-03T15:37:47Z</time></trkpt><trkpt lat="41.84604967664446" lon="13.826080188789728"><ele>1645.0</ele><time>2026-05-03T15:37:49Z</time></trkpt><trkpt lat="41.8459843287979" lon="13.826082405422616"><ele>1644.6666666666665</ele><time>2026-05-03T15:37:50Z</time></trkpt><trkpt lat="41.845888572772616" lon="13.826085563976923"><ele>1644.3333333333333</ele><time>2026-05-03T15:37:52Z</time></trkpt><trkpt lat="41.8457985107059" lon="13.826082024458284"><ele>1644.0</ele><time>2026-05-03T15:37:53Z</time></trkpt><trkpt lat="41.84573424304564" lon="13.826078701095328"><ele>1640.8333333333333</ele><time>2026-05-03T15:37:55Z</time></trkpt><trkpt lat="41.84568394742611" lon="13.826027790397813"><ele>1637.6666666666665</ele><time>2026-05-03T15:37:58Z</time></trkpt><trkpt lat="41.845632867872155" lon="13.825973903324908"><ele>1634.5</ele><time>2026-05-03T15:38:00Z</time></trkpt><trkpt lat="41.84554906607919" lon="13.82600257120401"><ele>1631.3333333333333</ele><time>2026-05-03T15:38:02Z</time></trkpt><trkpt lat="41.845442128381286" lon="13.825999272867781"><ele>1628.1666666666665</ele><time>2026-05-03T15:38:03Z</time></trkpt><trkpt lat="41.84535399569604" lon="13.825976267958076"><ele>1625.0</ele><time>2026-05-03T15:38:05Z</time></trkpt><trkpt lat="41.84525553936844" lon="13.826032058447227"><ele>1624.5714285714287</ele><time>2026-05-03T15:38:10Z</time></trkpt><trkpt lat="41.84519732389586" lon="13.826077332570108"><ele>1624.1428571428573</ele><time>2026-05-03T15:38:12Z</time></trkpt><trkpt lat="41.84512281458223" lon="13.82607385602905"><ele>1623.7142857142858</ele><time>2026-05-03T15:38:15Z</time></trkpt><trkpt lat="41.84502961112181" lon="13.826058211536893"><ele>1623.2857142857142</ele><time>2026-05-03T15:38:18Z</time></trkpt><trkpt lat="41.84495872619577" lon="13.826074519593593"><ele>1622.857142857143</ele><time>2026-05-03T15:38:20Z</time></trkpt><trkpt lat="41.844885707464606" lon="13.826061828689557"><ele>1622.4285714285713</ele><time>2026-05-03T15:38:22Z</time></trkpt><trkpt lat="41.844822306657036" lon="13.826062962240222"><ele>1622.0</ele><time>2026-05-03T15:38:24Z</time></trkpt><trkpt lat="41.84475637356696" lon="13.82612203638935"><ele>1618.2857142857142</ele><time>2026-05-03T15:38:26Z</time></trkpt><trkpt lat="41.84475323211536" lon="13.826207005029554"><ele>1614.5714285714287</ele><time>2026-05-03T15:38:29Z</time></trkpt><trkpt lat="41.84472374415785" lon="13.826288277381494"><ele>1610.857142857143</ele><time>2026-05-03T15:38:31Z</time></trkpt><trkpt lat="41.844692063706454" lon="13.826363301118924"><ele>1607.142857142857</ele><time>2026-05-03T15:38:32Z</time></trkpt><trkpt lat="41.84463006133324" lon="13.826414993357398"><ele>1603.4285714285716</ele><time>2026-05-03T15:38:37Z</time></trkpt><trkpt lat="41.84456182402195" lon="13.826424850442033"><ele>1599.7142857142858</ele><time>2026-05-03T15:38:42Z</time></trkpt><trkpt lat="41.8445090455543" lon="13.8265146789324"><ele>1596.0</ele><time>2026-05-03T15:39:01.999Z</time></trkpt><trkpt lat="41.844438637756014" lon="13.826557165557253"><ele>1596.0</ele><time>2026-05-03T15:39:03.999Z</time></trkpt><trkpt lat="41.84435304467148" lon="13.826634853568503"><ele>1596.0</ele><time>2026-05-03T15:39:05.999Z</time></trkpt><trkpt lat="41.84430540760548" lon="13.82672714031118"><ele>1596.0</ele><time>2026-05-03T15:39:07.999Z</time></trkpt><trkpt lat="41.84426986067257" lon="13.826800672756171"><ele>1596.0</ele><time>2026-05-03T15:39:09.999Z</time></trkpt><trkpt lat="41.84419947173928" lon="13.826814383244976"><ele>1596.0</ele><time>2026-05-03T15:39:11.999Z</time></trkpt><trkpt lat="41.844110343487394" lon="13.826808080678124"><ele>1596.0</ele><time>2026-05-03T15:39:13.999Z</time></trkpt><trkpt lat="41.844063278589424" lon="13.826895015957362"><ele>1591.1666666666667</ele><time>2026-05-03T15:39:16.999Z</time></trkpt><trkpt lat="41.844025486098616" lon="13.826978614220828"><ele>1586.3333333333335</ele><time>2026-05-03T15:39:20.999Z</time></trkpt><trkpt lat="41.84398027637729" lon="13.82704040791434"><ele>1581.5</ele><time>2026-05-03T15:39:24.999Z</time></trkpt><trkpt lat="41.843923779153606" lon="13.827085326703862"><ele>1576.6666666666667</ele><time>2026-05-03T15:39:26.999Z</time></trkpt><trkpt lat="41.84386136152817" lon="13.827176745931828"><ele>1571.8333333333335</ele><time>2026-05-03T15:39:28.999Z</time></trkpt><trkpt lat="41.84376133901534" lon="13.827279531267042"><ele>1567.0</ele><time>2026-05-03T15:39:30.999Z</time></trkpt><trkpt lat="41.84370684667229" lon="13.827322512071516"><ele>1567.0000000000002</ele><time>2026-05-03T15:39:31.999Z</time></trkpt><trkpt lat="41.8436319675983" lon="13.827397268099697"><ele>1567.0</ele><time>2026-05-03T15:39:33.999Z</time></trkpt><trkpt lat="41.843596288446626" lon="13.827468018175122"><ele>1567.0</ele><time>2026-05-03T15:39:35.999Z</time></trkpt><trkpt lat="41.84354043080812" lon="13.82755167906652"><ele>1567.0</ele><time>2026-05-03T15:39:41.999Z</time></trkpt><trkpt lat="41.84349541870957" lon="13.827674646678293"><ele>1567.0000000000002</ele><time>2026-05-03T15:39:44.999Z</time></trkpt><trkpt lat="41.84346027255877" lon="13.82775928044636"><ele>1567.0</ele><time>2026-05-03T15:39:47Z</time></trkpt><trkpt lat="41.843426646373494" lon="13.827841139768234"><ele>1560.1666666666667</ele><time>2026-05-03T15:39:49Z</time></trkpt><trkpt lat="41.84339569262057" lon="13.827928728227532"><ele>1553.3333333333335</ele><time>2026-05-03T15:39:57Z</time></trkpt><trkpt lat="41.843336997467866" lon="13.8279882884733"><ele>1546.5</ele><time>2026-05-03T15:39:59Z</time></trkpt><trkpt lat="41.84330712490969" lon="13.828064623669551"><ele>1539.6666666666667</ele><time>2026-05-03T15:40:01Z</time></trkpt><trkpt lat="41.843322541450604" lon="13.828189840639425"><ele>1532.8333333333335</ele><time>2026-05-03T15:40:04Z</time></trkpt><trkpt lat="41.84333421129569" lon="13.82830698115748"><ele>1526.0</ele><time>2026-05-03T15:40:07Z</time></trkpt><trkpt lat="41.843310405793574" lon="13.828388399659472"><ele>1524.142857142857</ele><time>2026-05-03T15:40:10Z</time></trkpt><trkpt lat="41.84329304086682" lon="13.828482165787456"><ele>1522.2857142857142</ele><time>2026-05-03T15:40:13Z</time></trkpt><trkpt lat="41.843292627492566" lon="13.828614917164026"><ele>1520.4285714285716</ele><time>2026-05-03T15:40:16Z</time></trkpt><trkpt lat="41.843280749479405" lon="13.82870515979792"><ele>1518.5714285714284</ele><time>2026-05-03T15:40:18Z</time></trkpt><trkpt lat="41.84324877941963" lon="13.828781127509673"><ele>1516.7142857142858</ele><time>2026-05-03T15:40:20Z</time></trkpt><trkpt lat="41.84320504249573" lon="13.828849957420633"><ele>1514.857142857143</ele><time>2026-05-03T15:40:28Z</time></trkpt><trkpt lat="41.84316087863846" lon="13.82891290264994"><ele>1513.0</ele><time>2026-05-03T15:40:48Z</time></trkpt><trkpt lat="41.84306583153363" lon="13.828960048139539"><ele>1513.0</ele><time>2026-05-03T15:40:51Z</time></trkpt><trkpt lat="41.84297389152092" lon="13.829022627286614"><ele>1513.0</ele><time>2026-05-03T15:40:53Z</time></trkpt><trkpt lat="41.84292131685726" lon="13.82911603019401"><ele>1513.0</ele><time>2026-05-03T15:40:55Z</time></trkpt><trkpt lat="41.84289898101287" lon="13.829258668174024"><ele>1513.0</ele><time>2026-05-03T15:40:56.999Z</time></trkpt><trkpt lat="41.84284856664242" lon="13.82941356815745"><ele>1513.0</ele><time>2026-05-03T15:40:58.999Z</time></trkpt><trkpt lat="41.842812810717" lon="13.829497745321078"><ele>1511.8333333333333</ele><time>2026-05-03T15:40:59.999Z</time></trkpt><trkpt lat="41.84275054179131" lon="13.829621609520174"><ele>1510.6666666666665</ele><time>2026-05-03T15:41:01.999Z</time></trkpt><trkpt lat="41.842718456102446" lon="13.829703503289798"><ele>1509.5</ele><time>2026-05-03T15:41:02.999Z</time></trkpt><trkpt lat="41.842696922433845" lon="13.82980451942421"><ele>1508.3333333333333</ele><time>2026-05-03T15:41:03.999Z</time></trkpt><trkpt lat="41.84266485416982" lon="13.829916803992898"><ele>1507.1666666666667</ele><time>2026-05-03T15:41:05.999Z</time></trkpt><trkpt lat="41.84259696672292" lon="13.830005716168072"><ele>1506.0</ele><time>2026-05-03T15:41:07.999Z</time></trkpt><trkpt lat="41.84248497865205" lon="13.830008785474503"><ele>1501.3333333333333</ele><time>2026-05-03T15:41:09.999Z</time></trkpt><trkpt lat="41.84238736518494" lon="13.829945013814195"><ele>1496.6666666666667</ele><time>2026-05-03T15:41:11.999Z</time></trkpt><trkpt lat="41.84232348288734" lon="13.829906305245501"><ele>1492.0</ele><time>2026-05-03T15:41:12.999Z</time></trkpt><trkpt lat="41.84225041770923" lon="13.829830336472737"><ele>1487.3333333333335</ele><time>2026-05-03T15:41:13.999Z</time></trkpt><trkpt lat="41.842198036877654" lon="13.829735627283354"><ele>1482.6666666666667</ele><time>2026-05-03T15:41:14.999Z</time></trkpt><trkpt lat="41.84214224063244" lon="13.829674427393066"><ele>1478.0</ele><time>2026-05-03T15:41:15.999Z</time></trkpt><trkpt lat="41.84209264106" lon="13.829621188508014"><ele>1478.0</ele><time>2026-05-03T15:41:16.999Z</time></trkpt><trkpt lat="41.84204618778049" lon="13.829560249427015"><ele>1478.0</ele><time>2026-05-03T15:41:17.999Z</time></trkpt><trkpt lat="41.841993651505696" lon="13.829503793356286"><ele>1478.0</ele><time>2026-05-03T15:41:18.999Z</time></trkpt><trkpt lat="41.841915958369725" lon="13.8294221100714"><ele>1478.0</ele><time>2026-05-03T15:41:20.999Z</time></trkpt><trkpt lat="41.841848009739174" lon="13.829356819743428"><ele>1478.0</ele><time>2026-05-03T15:41:22.999Z</time></trkpt><trkpt lat="41.841795086912995" lon="13.829280106092375"><ele>1478.0</ele><time>2026-05-03T15:41:24.999Z</time></trkpt><trkpt lat="41.84174430727012" lon="13.829204766715234"><ele>1477.8000000000002</ele><time>2026-05-03T15:41:26.999Z</time></trkpt><trkpt lat="41.841658096792514" lon="13.829110136991165"><ele>1477.6</ele><time>2026-05-03T15:41:28.999Z</time></trkpt><trkpt lat="41.84155226559981" lon="13.829017537157917"><ele>1477.4</ele><time>2026-05-03T15:41:30.999Z</time></trkpt><trkpt lat="41.84149504935532" lon="13.828960018259247"><ele>1477.1999999999998</ele><time>2026-05-03T15:41:31.999Z</time></trkpt><trkpt lat="41.841434576341335" lon="13.828886671320918"><ele>1477.0</ele><time>2026-05-03T15:41:32.999Z</time></trkpt><trkpt lat="41.84138330176748" lon="13.82877621578335"><ele>1477.0</ele><time>2026-05-03T15:41:33.999Z</time></trkpt><trkpt lat="41.841334343461426" lon="13.828683604512014"><ele>1477.0</ele><time>2026-05-03T15:41:34.999Z</time></trkpt><trkpt lat="41.84127780822283" lon="13.828607600876987"><ele>1477.0</ele><time>2026-05-03T15:41:35.999Z</time></trkpt><trkpt lat="41.84121076451385" lon="13.828518486515767"><ele>1477.0</ele><time>2026-05-03T15:41:36.999Z</time></trkpt><trkpt lat="41.841129141732445" lon="13.828456246216463"><ele>1477.0</ele><time>2026-05-03T15:41:37.999Z</time></trkpt><trkpt lat="41.841075951630046" lon="13.828353019613731"><ele>1477.0</ele><time>2026-05-03T15:41:38.999Z</time></trkpt><trkpt lat="41.84102051050384" lon="13.828256929374264"><ele>1477.1666666666665</ele><time>2026-05-03T15:41:39.999Z</time></trkpt><trkpt lat="41.84096948318857" lon="13.82816933073193"><ele>1477.3333333333333</ele><time>2026-05-03T15:41:40.999Z</time></trkpt><trkpt lat="41.840910086379196" lon="13.828072514861793"><ele>1477.5</ele><time>2026-05-03T15:41:41.999Z</time></trkpt><trkpt lat="41.84085063162977" lon="13.827986586897781"><ele>1477.6666666666667</ele><time>2026-05-03T15:41:42.999Z</time></trkpt><trkpt lat="41.84078641184206" lon="13.827905592233467"><ele>1477.8333333333335</ele><time>2026-05-03T15:41:43.999Z</time></trkpt><trkpt lat="41.84071830575389" lon="13.827821766613637"><ele>1478.0</ele><time>2026-05-03T15:41:44.999Z</time></trkpt><trkpt lat="41.840647068005154" lon="13.827756468687182"><ele>1475.6000000000001</ele><time>2026-05-03T15:41:45.999Z</time></trkpt><trkpt lat="41.84055976212946" lon="13.827706422798427"><ele>1473.2</ele><time>2026-05-03T15:41:46.999Z</time></trkpt><trkpt lat="41.840474186664366" lon="13.827656328035228"><ele>1470.8</ele><time>2026-05-03T15:41:47.999Z</time></trkpt><trkpt lat="41.84040398503765" lon="13.82758995834279"><ele>1468.4</ele><time>2026-05-03T15:41:48.999Z</time></trkpt><trkpt lat="41.840312427177835" lon="13.827565574914482"><ele>1466.0</ele><time>2026-05-03T15:41:49.999Z</time></trkpt><trkpt lat="41.84022769259117" lon="13.827577137665477"><ele>1465.9999999999998</ele><time>2026-05-03T15:41:51Z</time></trkpt><trkpt lat="41.84015039175004" lon="13.82759877106371"><ele>1466.0</ele><time>2026-05-03T15:41:52Z</time></trkpt><trkpt lat="41.84008263400267" lon="13.827608386724853"><ele>1466.0</ele><time>2026-05-03T15:41:53Z</time></trkpt><trkpt lat="41.84000707492184" lon="13.82760335512485"><ele>1466.0</ele><time>2026-05-03T15:41:54Z</time></trkpt><trkpt lat="41.839932878942975" lon="13.82758625747204"><ele>1466.0</ele><time>2026-05-03T15:41:55Z</time></trkpt><trkpt lat="41.83986310687246" lon="13.827590109535945"><ele>1465.9999999999998</ele><time>2026-05-03T15:41:56Z</time></trkpt><trkpt lat="41.83979326456152" lon="13.827564978098966"><ele>1466.0</ele><time>2026-05-03T15:41:57Z</time></trkpt><trkpt lat="41.83971538759752" lon="13.827521319606747"><ele>1463.3333333333335</ele><time>2026-05-03T15:41:58Z</time></trkpt><trkpt lat="41.83964433436715" lon="13.827444442301724"><ele>1460.6666666666667</ele><time>2026-05-03T15:42:00Z</time></trkpt><trkpt lat="41.839600779463545" lon="13.8273691741668"><ele>1458.0</ele><time>2026-05-03T15:42:01Z</time></trkpt><trkpt lat="41.839571357768385" lon="13.827278363985796"><ele>1455.3333333333333</ele><time>2026-05-03T15:42:02Z</time></trkpt><trkpt lat="41.83953774707828" lon="13.827184684335993"><ele>1452.6666666666665</ele><time>2026-05-03T15:42:03Z</time></trkpt><trkpt lat="41.83951505162472" lon="13.82707298748118"><ele>1450.0</ele><time>2026-05-03T15:42:04Z</time></trkpt><trkpt lat="41.83947020844054" lon="13.826991445310794"><ele>1450.0</ele><time>2026-05-03T15:42:05Z</time></trkpt><trkpt lat="41.839406428238725" lon="13.826939547143422"><ele>1450.0</ele><time>2026-05-03T15:42:06Z</time></trkpt><trkpt lat="41.83933310798375" lon="13.8269065100165"><ele>1450.0</ele><time>2026-05-03T15:42:07Z</time></trkpt><trkpt lat="41.83925627013269" lon="13.826864859378043"><ele>1450.0</ele><time>2026-05-03T15:42:08Z</time></trkpt><trkpt lat="41.8391764780599" lon="13.826812478799013"><ele>1450.0</ele><time>2026-05-03T15:42:09Z</time></trkpt><trkpt lat="41.83910372117204" lon="13.826763872130226"><ele>1450.0</ele><time>2026-05-03T15:42:10Z</time></trkpt><trkpt lat="41.839040596763944" lon="13.8266676898722"><ele>1448.4</ele><time>2026-05-03T15:42:11Z</time></trkpt><trkpt lat="41.83898421965522" lon="13.82657971536359"><ele>1446.8</ele><time>2026-05-03T15:42:12Z</time></trkpt><trkpt lat="41.83892364725769" lon="13.826490800475169"><ele>1445.1999999999998</ele><time>2026-05-03T15:42:13Z</time></trkpt><trkpt lat="41.838792846777665" lon="13.826421618281527"><ele>1443.6</ele><time>2026-05-03T15:42:15Z</time></trkpt><trkpt lat="41.83869925367281" lon="13.826362376017158"><ele>1442.0</ele><time>2026-05-03T15:42:16Z</time></trkpt><trkpt lat="41.838610687202106" lon="13.826297245022289"><ele>1442.0</ele><time>2026-05-03T15:42:17Z</time></trkpt><trkpt lat="41.838522039037976" lon="13.826215380459074"><ele>1442.0</ele><time>2026-05-03T15:42:18Z</time></trkpt><trkpt lat="41.83846436452678" lon="13.826149987523822"><ele>1442.0</ele><time>2026-05-03T15:42:19Z</time></trkpt><trkpt lat="41.83838643562048" lon="13.826104440652456"><ele>1442.0</ele><time>2026-05-03T15:42:20Z</time></trkpt><trkpt lat="41.83830778205199" lon="13.826056213799212"><ele>1442.0</ele><time>2026-05-03T15:42:21Z</time></trkpt><trkpt lat="41.83825523287532" lon="13.825997560298086"><ele>1442.0</ele><time>2026-05-03T15:42:24Z</time></trkpt><trkpt lat="41.83818780505691" lon="13.825982340354127"><ele>1442.1666666666667</ele><time>2026-05-03T15:42:27Z</time></trkpt><trkpt lat="41.83812192878333" lon="13.825946870086884"><ele>1442.3333333333335</ele><time>2026-05-03T15:42:31Z</time></trkpt><trkpt lat="41.83804210114172" lon="13.825901339506144"><ele>1442.5</ele><time>2026-05-03T15:42:33Z</time></trkpt><trkpt lat="41.8379469121314" lon="13.825856175882443"><ele>1442.6666666666667</ele><time>2026-05-03T15:42:35Z</time></trkpt><trkpt lat="41.83788857470732" lon="13.825822746398797"><ele>1442.8333333333333</ele><time>2026-05-03T15:42:38Z</time></trkpt><trkpt lat="41.83779943826283" lon="13.82571726098733"><ele>1443.0</ele><time>2026-05-03T15:42:40Z</time></trkpt><trkpt lat="41.83774085025918" lon="13.82568119473472"><ele>1443.0</ele><time>2026-05-03T15:42:41Z</time></trkpt><trkpt lat="41.83768692311654" lon="13.825634633279487"><ele>1443.0</ele><time>2026-05-03T15:42:42Z</time></trkpt><trkpt lat="41.83760687352527" lon="13.825593877561056"><ele>1443.0</ele><time>2026-05-03T15:42:44Z</time></trkpt><trkpt lat="41.83752209134996" lon="13.825558739400599"><ele>1443.0</ele><time>2026-05-03T15:42:46Z</time></trkpt><trkpt lat="41.83743248515506" lon="13.825509996051597"><ele>1443.0</ele><time>2026-05-03T15:42:48Z</time></trkpt><trkpt lat="41.837364844171304" lon="13.825469855383458"><ele>1443.0</ele><time>2026-05-03T15:42:50Z</time></trkpt><trkpt lat="41.837299513780884" lon="13.82538795915921"><ele>1442.1666666666667</ele><time>2026-05-03T15:42:52Z</time></trkpt><trkpt lat="41.83724752712025" lon="13.825328558912895"><ele>1441.3333333333333</ele><time>2026-05-03T15:42:54Z</time></trkpt><trkpt lat="41.837164624982016" lon="13.825252087134904"><ele>1440.5</ele><time>2026-05-03T15:42:56Z</time></trkpt><trkpt lat="41.8370738584847" lon="13.825199488826716"><ele>1439.6666666666665</ele><time>2026-05-03T15:42:58Z</time></trkpt><trkpt lat="41.83701161419608" lon="13.825169512676142"><ele>1438.8333333333333</ele><time>2026-05-03T15:43:00Z</time></trkpt><trkpt lat="41.836932527224334" lon="13.825115378489377"><ele>1438.0</ele><time>2026-05-03T15:43:03.999Z</time></trkpt><trkpt lat="41.836893273017225" lon="13.825023355849293"><ele>1438.0</ele><time>2026-05-03T15:43:06.999Z</time></trkpt><trkpt lat="41.83684204462749" lon="13.824956759028874"><ele>1438.0</ele><time>2026-05-03T15:43:09.999Z</time></trkpt><trkpt lat="41.836776576797774" lon="13.824898896084914"><ele>1438.0</ele><time>2026-05-03T15:43:12.999Z</time></trkpt><trkpt lat="41.836715565070044" lon="13.82485959100096"><ele>1438.0</ele><time>2026-05-03T15:43:15.999Z</time></trkpt><trkpt lat="41.83666483982943" lon="13.824804718514443"><ele>1438.0</ele><time>2026-05-03T15:43:18.999Z</time></trkpt><trkpt lat="41.83658001016538" lon="13.824758775524929"><ele>1438.0</ele><time>2026-05-03T15:43:20.999Z</time></trkpt><trkpt lat="41.83648889442293" lon="13.82472521385404"><ele>1436.0</ele><time>2026-05-03T15:43:23.999Z</time></trkpt><trkpt lat="41.83642598475885" lon="13.824703274051174"><ele>1434.0</ele><time>2026-05-03T15:43:25.999Z</time></trkpt><trkpt lat="41.83636397755835" lon="13.824636798124919"><ele>1432.0</ele><time>2026-05-03T15:43:27.999Z</time></trkpt><trkpt lat="41.836299873263535" lon="13.82458594979182"><ele>1430.0</ele><time>2026-05-03T15:43:29.999Z</time></trkpt><trkpt lat="41.836249587072025" lon="13.824517023686075"><ele>1428.0</ele><time>2026-05-03T15:43:31.999Z</time></trkpt><trkpt lat="41.836174482976936" lon="13.82446154331298"><ele>1426.0</ele><time>2026-05-03T15:43:33.999Z</time></trkpt><trkpt lat="41.836102335665885" lon="13.82440105572039"><ele>1426.0</ele><time>2026-05-03T15:43:35.999Z</time></trkpt><trkpt lat="41.83604159726073" lon="13.824348876200169"><ele>1426.0</ele><time>2026-05-03T15:43:37.999Z</time></trkpt><trkpt lat="41.83597844576566" lon="13.8242883182712"><ele>1426.0</ele><time>2026-05-03T15:43:39.999Z</time></trkpt><trkpt lat="41.83592437719788" lon="13.824193281228702"><ele>1426.0</ele><time>2026-05-03T15:43:41.999Z</time></trkpt><trkpt lat="41.835870472359915" lon="13.824128228536676"><ele>1426.0</ele><time>2026-05-03T15:43:43.999Z</time></trkpt><trkpt lat="41.8358081908736" lon="13.824032743402055"><ele>1426.0</ele><time>2026-05-03T15:43:45.999Z</time></trkpt><trkpt lat="41.8357212948897" lon="13.823985499220035"><ele>1425.4</ele><time>2026-05-03T15:43:47.999Z</time></trkpt><trkpt lat="41.83564226583218" lon="13.823915189576503"><ele>1424.8</ele><time>2026-05-03T15:43:49.999Z</time></trkpt><trkpt lat="41.83555771482188" lon="13.823859252141055"><ele>1424.2</ele><time>2026-05-03T15:43:51.999Z</time></trkpt><trkpt lat="41.835480248846906" lon="13.82377789055717"><ele>1423.6000000000001</ele><time>2026-05-03T15:43:53.999Z</time></trkpt><trkpt lat="41.8353940564625" lon="13.823688344162948"><ele>1423.0</ele><time>2026-05-03T15:43:55.999Z</time></trkpt><trkpt lat="41.83531646552291" lon="13.823614117677362"><ele>1423.0</ele><time>2026-05-03T15:43:58Z</time></trkpt><trkpt lat="41.83524079868511" lon="13.82359005265744"><ele>1423.0</ele><time>2026-05-03T15:44:01Z</time></trkpt><trkpt lat="41.83517751658793" lon="13.823535429251994"><ele>1423.0</ele><time>2026-05-03T15:44:03Z</time></trkpt><trkpt lat="41.83510960162519" lon="13.823495821494443"><ele>1423.0</ele><time>2026-05-03T15:44:05Z</time></trkpt><trkpt lat="41.83504334425998" lon="13.823488108540863"><ele>1423.0</ele><time>2026-05-03T15:44:07Z</time></trkpt><trkpt lat="41.83496893723411" lon="13.823428562279084"><ele>1423.0</ele><time>2026-05-03T15:44:10Z</time></trkpt><trkpt lat="41.83488142506428" lon="13.823367192842875"><ele>1421.8000000000002</ele><time>2026-05-03T15:44:13Z</time></trkpt><trkpt lat="41.834783050413414" lon="13.823337388409067"><ele>1420.6</ele><time>2026-05-03T15:44:15Z</time></trkpt><trkpt lat="41.83467747788444" lon="13.823327705815363"><ele>1419.4</ele><time>2026-05-03T15:44:17Z</time></trkpt><trkpt lat="41.834579293199695" lon="13.823313510108369"><ele>1418.1999999999998</ele><time>2026-05-03T15:44:19Z</time></trkpt><trkpt lat="41.834485479409594" lon="13.82327586239269"><ele>1417.0</ele><time>2026-05-03T15:44:21Z</time></trkpt><trkpt lat="41.83440304601035" lon="13.823231547949362"><ele>1417.0</ele><time>2026-05-03T15:44:23Z</time></trkpt><trkpt lat="41.83431968325746" lon="13.823154775531105"><ele>1417.0</ele><time>2026-05-03T15:44:25Z</time></trkpt><trkpt lat="41.83423092436704" lon="13.82308400671808"><ele>1417.0</ele><time>2026-05-03T15:44:27Z</time></trkpt><trkpt lat="41.834140654467255" lon="13.823009692238593"><ele>1417.0</ele><time>2026-05-03T15:44:29Z</time></trkpt><trkpt lat="41.834055092739746" lon="13.822933137020081"><ele>1417.0</ele><time>2026-05-03T15:44:31Z</time></trkpt><trkpt lat="41.83397218194005" lon="13.822859719522635"><ele>1417.1999999999998</ele><time>2026-05-03T15:44:33Z</time></trkpt><trkpt lat="41.83389574758011" lon="13.822778736173351"><ele>1417.4</ele><time>2026-05-03T15:44:35Z</time></trkpt><trkpt lat="41.83382965508351" lon="13.82268041693222"><ele>1417.6</ele><time>2026-05-03T15:44:37Z</time></trkpt><trkpt lat="41.833736753914735" lon="13.822607441879516"><ele>1417.8000000000002</ele><time>2026-05-03T15:44:39Z</time></trkpt><trkpt lat="41.83363576952618" lon="13.822550658103989"><ele>1418.0</ele><time>2026-05-03T15:44:41Z</time></trkpt><trkpt lat="41.833533953400995" lon="13.822488057263344"><ele>1415.25</ele><time>2026-05-03T15:44:43Z</time></trkpt><trkpt lat="41.83344952620433" lon="13.82238287737798"><ele>1412.5</ele><time>2026-05-03T15:44:45Z</time></trkpt><trkpt lat="41.83337234781744" lon="13.822273724712533"><ele>1409.75</ele><time>2026-05-03T15:44:47Z</time></trkpt><trkpt lat="41.833266524350876" lon="13.822202816704081"><ele>1407.0</ele><time>2026-05-03T15:44:49Z</time></trkpt><trkpt lat="41.83318062153516" lon="13.82211548476868"><ele>1407.0</ele><time>2026-05-03T15:44:51Z</time></trkpt><trkpt lat="41.833111311638966" lon="13.822011857034711"><ele>1407.0</ele><time>2026-05-03T15:44:53Z</time></trkpt><trkpt lat="41.8330195096084" lon="13.821917934312461"><ele>1407.0</ele><time>2026-05-03T15:44:55Z</time></trkpt><trkpt lat="41.83296812505272" lon="13.821867582057605"><ele>1407.0</ele><time>2026-05-03T15:44:56Z</time></trkpt><trkpt lat="41.832910834225316" lon="13.821830170791268"><ele>1407.0</ele><time>2026-05-03T15:44:57Z</time></trkpt><trkpt lat="41.83282494736508" lon="13.821731833316145"><ele>1406.0</ele><time>2026-05-03T15:44:59Z</time></trkpt><trkpt lat="41.832732974263244" lon="13.821647327084955"><ele>1405.0</ele><time>2026-05-03T15:45:01Z</time></trkpt><trkpt lat="41.83262998933808" lon="13.821585785565933"><ele>1404.0</ele><time>2026-05-03T15:45:03Z</time></trkpt><trkpt lat="41.83253239841735" lon="13.821505860813797"><ele>1403.0</ele><time>2026-05-03T15:45:05Z</time></trkpt><trkpt lat="41.832424721858374" lon="13.821429758854768"><ele>1403.0</ele><time>2026-05-03T15:45:06.999Z</time></trkpt><trkpt lat="41.83237689970575" lon="13.821374009632562"><ele>1403.0</ele><time>2026-05-03T15:45:07.999Z</time></trkpt><trkpt lat="41.832297135715265" lon="13.821287045244313"><ele>1403.0</ele><time>2026-05-03T15:45:09.999Z</time></trkpt><trkpt lat="41.832212038711475" lon="13.821182333401714"><ele>1403.0</ele><time>2026-05-03T15:45:11.999Z</time></trkpt><trkpt lat="41.83213660677811" lon="13.821088178789818"><ele>1403.0</ele><time>2026-05-03T15:45:13.999Z</time></trkpt><trkpt lat="41.83203952386683" lon="13.82098199246878"><ele>1404.4</ele><time>2026-05-03T15:45:16.999Z</time></trkpt><trkpt lat="41.831916897102644" lon="13.820873811678204"><ele>1405.8000000000002</ele><time>2026-05-03T15:45:18.999Z</time></trkpt><trkpt lat="41.831830929359036" lon="13.820832016303514"><ele>1407.2</ele><time>2026-05-03T15:45:19.999Z</time></trkpt><trkpt lat="41.8317474132099" lon="13.8207576002457"><ele>1408.6</ele><time>2026-05-03T15:45:20.999Z</time></trkpt><trkpt lat="41.83166120263013" lon="13.820708763265378"><ele>1410.0</ele><time>2026-05-03T15:45:21.999Z</time></trkpt><trkpt lat="41.83159121357925" lon="13.820691202885014"><ele>1406.5</ele><time>2026-05-03T15:45:22.999Z</time></trkpt><trkpt lat="41.831495675519136" lon="13.820676845764753"><ele>1403.0</ele><time>2026-05-03T15:45:23.999Z</time></trkpt><trkpt lat="41.831419237428555" lon="13.820644549659646"><ele>1399.5</ele><time>2026-05-03T15:45:24.999Z</time></trkpt><trkpt lat="41.831340067466954" lon="13.820621313119142"><ele>1396.0</ele><time>2026-05-03T15:45:25.999Z</time></trkpt><trkpt lat="41.83126120120402" lon="13.820592599729883"><ele>1392.5</ele><time>2026-05-03T15:45:26.999Z</time></trkpt><trkpt lat="41.83118245065056" lon="13.820550838017972"><ele>1389.0</ele><time>2026-05-03T15:45:27.999Z</time></trkpt><trkpt lat="41.831108394437976" lon="13.820525058701666"><ele>1389.0</ele><time>2026-05-03T15:45:28.999Z</time></trkpt><trkpt lat="41.831042488076186" lon="13.820459757423698"><ele>1389.0</ele><time>2026-05-03T15:45:29.999Z</time></trkpt><trkpt lat="41.83097105230632" lon="13.820416231902898"><ele>1389.0</ele><time>2026-05-03T15:45:30.999Z</time></trkpt><trkpt lat="41.830899561874716" lon="13.820341966661141"><ele>1389.0</ele><time>2026-05-03T15:45:31.999Z</time></trkpt><trkpt lat="41.830834092705146" lon="13.820320919363475"><ele>1389.0</ele><time>2026-05-03T15:45:32.999Z</time></trkpt><trkpt lat="41.8307630465331" lon="13.82025861798744"><ele>1389.0</ele><time>2026-05-03T15:45:33.999Z</time></trkpt><trkpt lat="41.83069310730581" lon="13.820232749070307"><ele>1388.8333333333333</ele><time>2026-05-03T15:45:34.999Z</time></trkpt><trkpt lat="41.83062440947073" lon="13.820185906785344"><ele>1388.6666666666667</ele><time>2026-05-03T15:45:35.999Z</time></trkpt><trkpt lat="41.83054658129975" lon="13.82015567625807"><ele>1388.5</ele><time>2026-05-03T15:45:36.999Z</time></trkpt><trkpt lat="41.830475542526045" lon="13.820109216974345"><ele>1388.3333333333335</ele><time>2026-05-03T15:45:37.999Z</time></trkpt><trkpt lat="41.83040129270576" lon="13.820064012761069"><ele>1388.1666666666667</ele><time>2026-05-03T15:45:38.999Z</time></trkpt><trkpt lat="41.830326068332724" lon="13.820029305769705"><ele>1388.0</ele><time>2026-05-03T15:45:39.999Z</time></trkpt><trkpt lat="41.83023963286427" lon="13.820021544897854"><ele>1388.0</ele><time>2026-05-03T15:45:40.999Z</time></trkpt><trkpt lat="41.83015834345633" lon="13.819970915217631"><ele>1388.0</ele><time>2026-05-03T15:45:41.999Z</time></trkpt><trkpt lat="41.8300861899837" lon="13.819915385295293"><ele>1388.0</ele><time>2026-05-03T15:45:42.999Z</time></trkpt><trkpt lat="41.8300197381942" lon="13.819838185420588"><ele>1388.0</ele><time>2026-05-03T15:45:43.999Z</time></trkpt><trkpt lat="41.82993185279407" lon="13.819762431958836"><ele>1388.0</ele><time>2026-05-03T15:45:44.999Z</time></trkpt><trkpt lat="41.82986443666399" lon="13.819698183222497"><ele>1388.0</ele><time>2026-05-03T15:45:45.999Z</time></trkpt><trkpt lat="41.82978711894079" lon="13.819635774337554"><ele>1388.0</ele><time>2026-05-03T15:45:46.999Z</time></trkpt><trkpt lat="41.82971648902963" lon="13.819578754370946"><ele>1388.0</ele><time>2026-05-03T15:45:47.999Z</time></trkpt><trkpt lat="41.82964882166764" lon="13.819530094788783"><ele>1388.0</ele><time>2026-05-03T15:45:48.999Z</time></trkpt><trkpt lat="41.829592479665216" lon="13.819462818330157"><ele>1388.0</ele><time>2026-05-03T15:45:49.999Z</time></trkpt><trkpt lat="41.82952943865529" lon="13.819382848123094"><ele>1388.0</ele><time>2026-05-03T15:45:50.999Z</time></trkpt><trkpt lat="41.829466062496195" lon="13.819328933867661"><ele>1388.0</ele><time>2026-05-03T15:45:51.999Z</time></trkpt><trkpt lat="41.829407234232434" lon="13.81928884168729"><ele>1388.0</ele><time>2026-05-03T15:45:52.999Z</time></trkpt><trkpt lat="41.829343446684454" lon="13.819242522232633"><ele>1388.0</ele><time>2026-05-03T15:45:53.999Z</time></trkpt><trkpt lat="41.82928129758319" lon="13.819180797405828"><ele>1388.0</ele><time>2026-05-03T15:45:54.999Z</time></trkpt><trkpt lat="41.82922382330442" lon="13.819116695217636"><ele>1388.0</ele><time>2026-05-03T15:45:55.999Z</time></trkpt><trkpt lat="41.8291663674818" lon="13.819062806760396"><ele>1388.0</ele><time>2026-05-03T15:45:56.999Z</time></trkpt><trkpt lat="41.82909866090122" lon="13.819006177344658"><ele>1388.0</ele><time>2026-05-03T15:45:57.999Z</time></trkpt><trkpt lat="41.829028316285" lon="13.81895765144499"><ele>1384.1666666666667</ele><time>2026-05-03T15:45:58.999Z</time></trkpt><trkpt lat="41.828950180676735" lon="13.818920619989044"><ele>1380.3333333333335</ele><time>2026-05-03T15:45:59.999Z</time></trkpt><trkpt lat="41.82887300671487" lon="13.818883485643093"><ele>1376.5</ele><time>2026-05-03T15:46:00.999Z</time></trkpt><trkpt lat="41.8287943109454" lon="13.818849733220906"><ele>1372.6666666666667</ele><time>2026-05-03T15:46:01.999Z</time></trkpt><trkpt lat="41.82871785977711" lon="13.818816638632816"><ele>1368.8333333333333</ele><time>2026-05-03T15:46:03Z</time></trkpt><trkpt lat="41.828645268337866" lon="13.818776578395374"><ele>1365.0</ele><time>2026-05-03T15:46:04Z</time></trkpt><trkpt lat="41.82857477227646" lon="13.81873184459036"><ele>1365.0</ele><time>2026-05-03T15:46:05Z</time></trkpt><trkpt lat="41.82850910598753" lon="13.818661838849106"><ele>1365.0</ele><time>2026-05-03T15:46:06Z</time></trkpt><trkpt lat="41.82844048076871" lon="13.818605131787715"><ele>1365.0</ele><time>2026-05-03T15:46:07Z</time></trkpt><trkpt lat="41.82838589048444" lon="13.818539495409967"><ele>1365.0</ele><time>2026-05-03T15:46:08Z</time></trkpt><trkpt lat="41.82831787135727" lon="13.818481213654348"><ele>1365.0</ele><time>2026-05-03T15:46:09Z</time></trkpt><trkpt lat="41.828251371458386" lon="13.818417952682982"><ele>1365.0</ele><time>2026-05-03T15:46:10Z</time></trkpt><trkpt lat="41.82819471171355" lon="13.81832196862236"><ele>1364.3333333333333</ele><time>2026-05-03T15:46:11Z</time></trkpt><trkpt lat="41.82815959445351" lon="13.818220473902914"><ele>1363.6666666666667</ele><time>2026-05-03T15:46:12Z</time></trkpt><trkpt lat="41.828135693512735" lon="13.818108272920874"><ele>1363.0</ele><time>2026-05-03T15:46:13Z</time></trkpt><trkpt lat="41.82810863892061" lon="13.818009812943233"><ele>1362.3333333333335</ele><time>2026-05-03T15:46:14Z</time></trkpt><trkpt lat="41.82808029807084" lon="13.817912237331925"><ele>1361.6666666666667</ele><time>2026-05-03T15:46:15Z</time></trkpt><trkpt lat="41.82806093636808" lon="13.81780253734309"><ele>1361.0</ele><time>2026-05-03T15:46:16Z</time></trkpt><trkpt lat="41.82802463461825" lon="13.817707357361485"><ele>1362.0</ele><time>2026-05-03T15:46:17Z</time></trkpt><trkpt lat="41.827957074125464" lon="13.81763275121701"><ele>1363.0</ele><time>2026-05-03T15:46:18Z</time></trkpt><trkpt lat="41.82790553744377" lon="13.817547207373563"><ele>1364.0</ele><time>2026-05-03T15:46:19Z</time></trkpt><trkpt lat="41.82786668292931" lon="13.817456893770666"><ele>1365.0</ele><time>2026-05-03T15:46:20Z</time></trkpt><trkpt lat="41.82783667693241" lon="13.817357943881436"><ele>1366.0</ele><time>2026-05-03T15:46:21Z</time></trkpt><trkpt lat="41.82779096351364" lon="13.817269185408444"><ele>1367.0</ele><time>2026-05-03T15:46:22Z</time></trkpt><trkpt lat="41.82775418977092" lon="13.817151461605203"><ele>1367.0</ele><time>2026-05-03T15:46:23Z</time></trkpt><trkpt lat="41.827712607489374" lon="13.817057453321043"><ele>1367.0</ele><time>2026-05-03T15:46:24Z</time></trkpt><trkpt lat="41.82765389951199" lon="13.81698455535833"><ele>1367.0</ele><time>2026-05-03T15:46:25Z</time></trkpt><trkpt lat="41.82758737051351" lon="13.81691138566672"><ele>1367.0</ele><time>2026-05-03T15:46:26Z</time></trkpt><trkpt lat="41.827516243737975" lon="13.816854565206354"><ele>1367.0</ele><time>2026-05-03T15:46:27Z</time></trkpt><trkpt lat="41.82744885667863" lon="13.816808891696597"><ele>1367.0</ele><time>2026-05-03T15:46:28Z</time></trkpt><trkpt lat="41.82737795392712" lon="13.816770193604333"><ele>1365.0</ele><time>2026-05-03T15:46:29Z</time></trkpt><trkpt lat="41.827307761331795" lon="13.816714124264712"><ele>1363.0</ele><time>2026-05-03T15:46:30Z</time></trkpt><trkpt lat="41.827240599155054" lon="13.81667290613046"><ele>1361.0</ele><time>2026-05-03T15:46:31Z</time></trkpt><trkpt lat="41.82717569069508" lon="13.816643361163408"><ele>1359.0</ele><time>2026-05-03T15:46:32Z</time></trkpt><trkpt lat="41.82710926817998" lon="13.816602019580607"><ele>1357.0</ele><time>2026-05-03T15:46:33Z</time></trkpt><trkpt lat="41.82703898016329" lon="13.816559131881592"><ele>1355.0</ele><time>2026-05-03T15:46:34Z</time></trkpt><trkpt lat="41.826957083771035" lon="13.816493125637399"><ele>1355.0</ele><time>2026-05-03T15:46:35Z</time></trkpt><trkpt lat="41.826878441105485" lon="13.816395107658069"><ele>1355.0</ele><time>2026-05-03T15:46:36Z</time></trkpt><trkpt lat="41.82677531416974" lon="13.816322209081164"><ele>1355.0</ele><time>2026-05-03T15:46:37Z</time></trkpt><trkpt lat="41.826705642406075" lon="13.816181853153802"><ele>1355.0</ele><time>2026-05-03T15:46:38Z</time></trkpt><trkpt lat="41.82664901170501" lon="13.815993010585295"><ele>1353.0</ele><time>2026-05-03T15:46:39Z</time></trkpt><trkpt lat="41.82656534262468" lon="13.815841300362235"><ele>1351.0</ele><time>2026-05-03T15:46:40Z</time></trkpt><trkpt lat="41.826493027927214" lon="13.815749885894517"><ele>1349.0</ele><time>2026-05-03T15:46:41Z</time></trkpt><trkpt lat="41.8264527277399" lon="13.815585545981664"><ele>1347.0</ele><time>2026-05-03T15:46:42Z</time></trkpt><trkpt lat="41.82644945145187" lon="13.815386966895131"><ele>1347.0</ele><time>2026-05-03T15:46:43Z</time></trkpt><trkpt lat="41.82647351133756" lon="13.815164744834645"><ele>1347.0</ele><time>2026-05-03T15:46:44Z</time></trkpt><trkpt lat="41.82651152145101" lon="13.81496756225173"><ele>1347.0</ele><time>2026-05-03T15:46:45Z</time></trkpt><trkpt lat="41.82651544276271" lon="13.814801746916926"><ele>1347.0</ele><time>2026-05-03T15:46:46Z</time></trkpt><trkpt lat="41.82650742175071" lon="13.814649300443115"><ele>1344.3999999999999</ele><time>2026-05-03T15:46:47Z</time></trkpt><trkpt lat="41.82651481089928" lon="13.814501517208733"><ele>1341.8</ele><time>2026-05-03T15:46:48Z</time></trkpt><trkpt lat="41.82653711307108" lon="13.814379370528904"><ele>1339.2</ele><time>2026-05-03T15:46:49Z</time></trkpt><trkpt lat="41.8265620021369" lon="13.81428468962573"><ele>1336.6</ele><time>2026-05-03T15:46:50Z</time></trkpt><trkpt lat="41.82656455370578" lon="13.814162023882469"><ele>1334.0</ele><time>2026-05-03T15:46:51Z</time></trkpt><trkpt lat="41.82659749050606" lon="13.814003777525027"><ele>1328.0</ele><time>2026-05-03T15:46:52Z</time></trkpt><trkpt lat="41.82663566685949" lon="13.813842943765115"><ele>1322.0</ele><time>2026-05-03T15:46:53Z</time></trkpt><trkpt lat="41.82667970547747" lon="13.81370512741652"><ele>1316.0</ele><time>2026-05-03T15:46:54Z</time></trkpt><trkpt lat="41.82672077746464" lon="13.813558049478662"><ele>1310.0</ele><time>2026-05-03T15:46:55Z</time></trkpt><trkpt lat="41.82674475317591" lon="13.813454241266458"><ele>1304.0</ele><time>2026-05-03T15:46:56Z</time></trkpt><trkpt lat="41.82673948743519" lon="13.813331867825317"><ele>1300.6</ele><time>2026-05-03T15:46:57Z</time></trkpt><trkpt lat="41.82672616795502" lon="13.813178341707074"><ele>1297.2</ele><time>2026-05-03T15:46:58Z</time></trkpt><trkpt lat="41.826704303703956" lon="13.81305090828138"><ele>1293.8</ele><time>2026-05-03T15:46:59Z</time></trkpt><trkpt lat="41.82665158656365" lon="13.812940028425992"><ele>1290.3999999999999</ele><time>2026-05-03T15:47:00Z</time></trkpt><trkpt lat="41.826603974121944" lon="13.812841373517854"><ele>1287.0</ele><time>2026-05-03T15:47:01Z</time></trkpt><trkpt lat="41.82656605102789" lon="13.812731122136933"><ele>1285.3999999999999</ele><time>2026-05-03T15:47:02Z</time></trkpt><trkpt lat="41.8265457222825" lon="13.812632830545336"><ele>1283.8</ele><time>2026-05-03T15:47:03Z</time></trkpt><trkpt lat="41.82651259373843" lon="13.812519784490178"><ele>1282.2</ele><time>2026-05-03T15:47:04Z</time></trkpt><trkpt lat="41.826465318066035" lon="13.812419674924314"><ele>1280.6</ele><time>2026-05-03T15:47:05Z</time></trkpt><trkpt lat="41.826380057430555" lon="13.812293808878467"><ele>1279.0</ele><time>2026-05-03T15:47:07Z</time></trkpt><trkpt lat="41.82631897357765" lon="13.812206275506904"><ele>1279.0</ele><time>2026-05-03T15:47:08Z</time></trkpt><trkpt lat="41.826249805126096" lon="13.812134869770528"><ele>1279.0</ele><time>2026-05-03T15:47:09Z</time></trkpt><trkpt lat="41.826190911186885" lon="13.81203653135413"><ele>1279.0</ele><time>2026-05-03T15:47:10Z</time></trkpt><trkpt lat="41.82615745858562" lon="13.811911199164824"><ele>1279.0</ele><time>2026-05-03T15:47:11Z</time></trkpt><trkpt lat="41.82614435772012" lon="13.811768868871573"><ele>1279.0</ele><time>2026-05-03T15:47:12Z</time></trkpt><trkpt lat="41.82612283138505" lon="13.811636603308981"><ele>1278.4</ele><time>2026-05-03T15:47:12.999Z</time></trkpt><trkpt lat="41.826099393215266" lon="13.811491570807455"><ele>1277.8000000000002</ele><time>2026-05-03T15:47:13.999Z</time></trkpt><trkpt lat="41.82608832916699" lon="13.811353075746544"><ele>1277.1999999999998</ele><time>2026-05-03T15:47:14.999Z</time></trkpt><trkpt lat="41.82608003755396" lon="13.81120875082635"><ele>1276.6</ele><time>2026-05-03T15:47:15.999Z</time></trkpt><trkpt lat="41.82607803056622" lon="13.811064796342256"><ele>1276.0</ele><time>2026-05-03T15:47:16.999Z</time></trkpt><trkpt lat="41.82607587054213" lon="13.810919173505935"><ele>1275.2</ele><time>2026-05-03T15:47:17.999Z</time></trkpt><trkpt lat="41.826064522468634" lon="13.81078705637639"><ele>1274.3999999999999</ele><time>2026-05-03T15:47:18.999Z</time></trkpt><trkpt lat="41.826049996188225" lon="13.810656394578004"><ele>1273.6</ele><time>2026-05-03T15:47:19.999Z</time></trkpt><trkpt lat="41.82602908524068" lon="13.810523209393255"><ele>1272.8</ele><time>2026-05-03T15:47:20.999Z</time></trkpt><trkpt lat="41.82600292842376" lon="13.810394834437336"><ele>1272.0</ele><time>2026-05-03T15:47:21.999Z</time></trkpt><trkpt lat="41.82598130078457" lon="13.810264981198378"><ele>1268.8</ele><time>2026-05-03T15:47:22.999Z</time></trkpt><trkpt lat="41.825963458710106" lon="13.810131661554859"><ele>1265.6</ele><time>2026-05-03T15:47:23.999Z</time></trkpt><trkpt lat="41.82594321991084" lon="13.810000176987344"><ele>1262.3999999999999</ele><time>2026-05-03T15:47:24.999Z</time></trkpt><trkpt lat="41.82592281954236" lon="13.809869662262049"><ele>1259.2</ele><time>2026-05-03T15:47:25.999Z</time></trkpt><trkpt lat="41.82590990908778" lon="13.809738250934068"><ele>1256.0</ele><time>2026-05-03T15:47:26.999Z</time></trkpt><trkpt lat="41.82589250364633" lon="13.809604785758468"><ele>1256.0</ele><time>2026-05-03T15:47:27.999Z</time></trkpt><trkpt lat="41.82587750452973" lon="13.809475632460883"><ele>1256.0</ele><time>2026-05-03T15:47:28.999Z</time></trkpt><trkpt lat="41.82586296102641" lon="13.809345816360455"><ele>1256.0</ele><time>2026-05-03T15:47:29.999Z</time></trkpt><trkpt lat="41.82585604533155" lon="13.80921813875035"><ele>1256.0</ele><time>2026-05-03T15:47:30.999Z</time></trkpt><trkpt lat="41.82584607167334" lon="13.809090487230337"><ele>1256.0</ele><time>2026-05-03T15:47:31.999Z</time></trkpt><trkpt lat="41.82584144397308" lon="13.80896499149288"><ele>1255.2</ele><time>2026-05-03T15:47:32.999Z</time></trkpt><trkpt lat="41.82584451361767" lon="13.808844957910054"><ele>1254.3999999999999</ele><time>2026-05-03T15:47:33.999Z</time></trkpt><trkpt lat="41.82585265241933" lon="13.808721104134497"><ele>1253.6</ele><time>2026-05-03T15:47:34.999Z</time></trkpt><trkpt lat="41.82586120597955" lon="13.808603274955471"><ele>1252.8</ele><time>2026-05-03T15:47:35.999Z</time></trkpt><trkpt lat="41.82588457478716" lon="13.808489289318445"><ele>1252.0</ele><time>2026-05-03T15:47:36.999Z</time></trkpt><trkpt lat="41.82589924148841" lon="13.808359733179401"><ele>1250.8333333333333</ele><time>2026-05-03T15:47:37.999Z</time></trkpt><trkpt lat="41.82591923129153" lon="13.808248640177508"><ele>1249.6666666666665</ele><time>2026-05-03T15:47:38.999Z</time></trkpt><trkpt lat="41.82593298427419" lon="13.80813655605208"><ele>1248.5</ele><time>2026-05-03T15:47:39.999Z</time></trkpt><trkpt lat="41.82594559394856" lon="13.808023353898953"><ele>1247.3333333333333</ele><time>2026-05-03T15:47:40.999Z</time></trkpt><trkpt lat="41.82593033851809" lon="13.807912765426478"><ele>1246.1666666666667</ele><time>2026-05-03T15:47:41.999Z</time></trkpt><trkpt lat="41.82588925298828" lon="13.80781237262596"><ele>1245.0</ele><time>2026-05-03T15:47:42.999Z</time></trkpt><trkpt lat="41.82583067012175" lon="13.807721961346036"><ele>1245.0</ele><time>2026-05-03T15:47:43.999Z</time></trkpt><trkpt lat="41.82576868477543" lon="13.807661906331075"><ele>1245.0</ele><time>2026-05-03T15:47:44.999Z</time></trkpt><trkpt lat="41.82572932651119" lon="13.807584417761715"><ele>1245.0</ele><time>2026-05-03T15:47:45.999Z</time></trkpt><trkpt lat="41.825717561519475" lon="13.80750059141972"><ele>1245.0</ele><time>2026-05-03T15:47:46.999Z</time></trkpt><trkpt lat="41.825786353587404" lon="13.807384386347003"><ele>1245.0</ele><time>2026-05-03T15:47:48.999Z</time></trkpt><trkpt lat="41.82586394674917" lon="13.807376598422389"><ele>1245.0</ele><time>2026-05-03T15:47:49.999Z</time></trkpt><trkpt lat="41.82593475325815" lon="13.807365331570635"><ele>1245.7142857142858</ele><time>2026-05-03T15:47:50.999Z</time></trkpt><trkpt lat="41.82599574053617" lon="13.807334818947407"><ele>1246.4285714285716</ele><time>2026-05-03T15:47:51.999Z</time></trkpt><trkpt lat="41.826063447511956" lon="13.807316373030107"><ele>1247.1428571428573</ele><time>2026-05-03T15:47:52.999Z</time></trkpt><trkpt lat="41.82613003337191" lon="13.807304298298648"><ele>1247.857142857143</ele><time>2026-05-03T15:47:53.999Z</time></trkpt><trkpt lat="41.82619423572577" lon="13.807292852912738"><ele>1248.5714285714287</ele><time>2026-05-03T15:47:54.999Z</time></trkpt><trkpt lat="41.82625733474562" lon="13.807266849075422"><ele>1249.2857142857144</ele><time>2026-05-03T15:47:55.999Z</time></trkpt><trkpt lat="41.82631185205769" lon="13.807218615072665"><ele>1250.0</ele><time>2026-05-03T15:47:56.999Z</time></trkpt><trkpt lat="41.82635550813626" lon="13.807157162149892"><ele>1250.0</ele><time>2026-05-03T15:47:57.999Z</time></trkpt><trkpt lat="41.82637118793618" lon="13.807052370055393"><ele>1250.0</ele><time>2026-05-03T15:47:59.999Z</time></trkpt><trkpt lat="41.826385870256175" lon="13.806947828873502"><ele>1250.0</ele><time>2026-05-03T15:48:01.999Z</time></trkpt><trkpt lat="41.82639033856075" lon="13.806831539354313"><ele>1250.0</ele><time>2026-05-03T15:48:03.999Z</time></trkpt><trkpt lat="41.826413384242706" lon="13.806671645620067"><ele>1250.0</ele><time>2026-05-03T15:48:05.999Z</time></trkpt><trkpt lat="41.82643532932923" lon="13.806591572095602"><ele>1250.0</ele><time>2026-05-03T15:48:06.999Z</time></trkpt><trkpt lat="41.82645886802747" lon="13.806508789652234"><ele>1248.5714285714287</ele><time>2026-05-03T15:48:08Z</time></trkpt><trkpt lat="41.82647573390563" lon="13.806410077474268"><ele>1247.142857142857</ele><time>2026-05-03T15:48:09Z</time></trkpt><trkpt lat="41.826474465385566" lon="13.806311106263465"><ele>1245.7142857142858</ele><time>2026-05-03T15:48:10Z</time></trkpt><trkpt lat="41.82645579803488" lon="13.80622013027329"><ele>1244.2857142857142</ele><time>2026-05-03T15:48:11Z</time></trkpt><trkpt lat="41.82642885023721" lon="13.80612334087837"><ele>1242.857142857143</ele><time>2026-05-03T15:48:12Z</time></trkpt><trkpt lat="41.826394790717956" lon="13.806035133928207"><ele>1241.4285714285716</ele><time>2026-05-03T15:48:13Z</time></trkpt><trkpt lat="41.82636244686063" lon="13.805948045099738"><ele>1240.0</ele><time>2026-05-03T15:48:14Z</time></trkpt><trkpt lat="41.826335281082876" lon="13.80585673018377"><ele>1239.1666666666665</ele><time>2026-05-03T15:48:15Z</time></trkpt><trkpt lat="41.82632260354623" lon="13.805757963063066"><ele>1238.3333333333333</ele><time>2026-05-03T15:48:16Z</time></trkpt><trkpt lat="41.82632036382332" lon="13.805658086145174"><ele>1237.5</ele><time>2026-05-03T15:48:17Z</time></trkpt><trkpt lat="41.82633317539882" lon="13.805559717492311"><ele>1236.6666666666667</ele><time>2026-05-03T15:48:18Z</time></trkpt><trkpt lat="41.82635261618685" lon="13.805467018899144"><ele>1235.8333333333335</ele><time>2026-05-03T15:48:19Z</time></trkpt><trkpt lat="41.82636793841622" lon="13.80536371599133"><ele>1235.0</ele><time>2026-05-03T15:48:20Z</time></trkpt><trkpt lat="41.82637724732365" lon="13.805256322211013"><ele>1234.3333333333335</ele><time>2026-05-03T15:48:21Z</time></trkpt><trkpt lat="41.826373959817815" lon="13.80515117295166"><ele>1233.6666666666667</ele><time>2026-05-03T15:48:22Z</time></trkpt><trkpt lat="41.826368465356516" lon="13.805040938432771"><ele>1233.0</ele><time>2026-05-03T15:48:23Z</time></trkpt><trkpt lat="41.826365816422495" lon="13.804935440809246"><ele>1232.3333333333333</ele><time>2026-05-03T15:48:24Z</time></trkpt><trkpt lat="41.82636867456602" lon="13.804828775189769"><ele>1231.6666666666665</ele><time>2026-05-03T15:48:25Z</time></trkpt><trkpt lat="41.82635831006464" lon="13.804732380882546"><ele>1231.0</ele><time>2026-05-03T15:48:26Z</time></trkpt><trkpt lat="41.8263440541063" lon="13.80463326489232"><ele>1231.0</ele><time>2026-05-03T15:48:27Z</time></trkpt><trkpt lat="41.826329384640275" lon="13.804534432557013"><ele>1231.0</ele><time>2026-05-03T15:48:28Z</time></trkpt><trkpt lat="41.82631689460666" lon="13.804436300065863"><ele>1231.0</ele><time>2026-05-03T15:48:29Z</time></trkpt><trkpt lat="41.82631816235983" lon="13.804341249768587"><ele>1231.0</ele><time>2026-05-03T15:48:30Z</time></trkpt><trkpt lat="41.82631059819896" lon="13.80424230020881"><ele>1231.0</ele><time>2026-05-03T15:48:31Z</time></trkpt><trkpt lat="41.826316215987006" lon="13.804148981177956"><ele>1231.0</ele><time>2026-05-03T15:48:32Z</time></trkpt><trkpt lat="41.82631721601676" lon="13.80405732565187"><ele>1231.0</ele><time>2026-05-03T15:48:33Z</time></trkpt><trkpt lat="41.82631533668611" lon="13.803970263052351"><ele>1230.4285714285713</ele><time>2026-05-03T15:48:34Z</time></trkpt><trkpt lat="41.82630683664692" lon="13.803877302527788"><ele>1229.857142857143</ele><time>2026-05-03T15:48:35Z</time></trkpt><trkpt lat="41.82629437701346" lon="13.803786980816666"><ele>1229.2857142857142</ele><time>2026-05-03T15:48:36Z</time></trkpt><trkpt lat="41.8262733711892" lon="13.803697727616449"><ele>1228.7142857142858</ele><time>2026-05-03T15:48:37Z</time></trkpt><trkpt lat="41.82624649675246" lon="13.803611848620998"><ele>1228.142857142857</ele><time>2026-05-03T15:48:38Z</time></trkpt><trkpt lat="41.82621328066104" lon="13.80353120879882"><ele>1227.5714285714287</ele><time>2026-05-03T15:48:39Z</time></trkpt><trkpt lat="41.82618350347251" lon="13.803448649021735"><ele>1227.0</ele><time>2026-05-03T15:48:40Z</time></trkpt><trkpt lat="41.82614633726945" lon="13.803364050873308"><ele>1226.6666666666667</ele><time>2026-05-03T15:48:41Z</time></trkpt><trkpt lat="41.826115510394445" lon="13.80328208597598"><ele>1226.3333333333333</ele><time>2026-05-03T15:48:42Z</time></trkpt><trkpt lat="41.82608369282732" lon="13.803206979052748"><ele>1226.0</ele><time>2026-05-03T15:48:43Z</time></trkpt><trkpt lat="41.82605210231268" lon="13.803129262916565"><ele>1225.6666666666665</ele><time>2026-05-03T15:48:44Z</time></trkpt><trkpt lat="41.82602622404532" lon="13.803050542710347"><ele>1225.3333333333333</ele><time>2026-05-03T15:48:45Z</time></trkpt><trkpt lat="41.82599405349258" lon="13.802972131367145"><ele>1225.0</ele><time>2026-05-03T15:48:46Z</time></trkpt><trkpt lat="41.825960379670256" lon="13.802815335292511"><ele>1225.8</ele><time>2026-05-03T15:48:48Z</time></trkpt><trkpt lat="41.825960898877874" lon="13.802651738100572"><ele>1226.6</ele><time>2026-05-03T15:48:50Z</time></trkpt><trkpt lat="41.82597414332229" lon="13.802568740381536"><ele>1227.4</ele><time>2026-05-03T15:48:51Z</time></trkpt><trkpt lat="41.82598417655212" lon="13.802412106964516"><ele>1228.2</ele><time>2026-05-03T15:48:53Z</time></trkpt><trkpt lat="41.82599169521859" lon="13.80225780501511"><ele>1229.0</ele><time>2026-05-03T15:48:55Z</time></trkpt><trkpt lat="41.825976570861165" lon="13.802106717890927"><ele>1227.0</ele><time>2026-05-03T15:48:57Z</time></trkpt><trkpt lat="41.825951684476436" lon="13.801960441538505"><ele>1225.0</ele><time>2026-05-03T15:48:59Z</time></trkpt><trkpt lat="41.825936296299716" lon="13.80181880952777"><ele>1223.0</ele><time>2026-05-03T15:49:01Z</time></trkpt><trkpt lat="41.825912158221215" lon="13.801675534978099"><ele>1221.0</ele><time>2026-05-03T15:49:03Z</time></trkpt><trkpt lat="41.825872704825045" lon="13.801541714143887"><ele>1219.0</ele><time>2026-05-03T15:49:05Z</time></trkpt><trkpt lat="41.825826383475324" lon="13.801414446250314"><ele>1218.6000000000001</ele><time>2026-05-03T15:49:07Z</time></trkpt><trkpt lat="41.8257764283243" lon="13.801282027842966"><ele>1218.2</ele><time>2026-05-03T15:49:09Z</time></trkpt><trkpt lat="41.825732232639986" lon="13.801144987162395"><ele>1217.8000000000002</ele><time>2026-05-03T15:49:11Z</time></trkpt><trkpt lat="41.82569229998266" lon="13.801012691060938"><ele>1217.4</ele><time>2026-05-03T15:49:13Z</time></trkpt><trkpt lat="41.82564186679257" lon="13.800880597084994"><ele>1217.0</ele><time>2026-05-03T15:49:15Z</time></trkpt><trkpt lat="41.825611242118576" lon="13.800732044236078"><ele>1216.5</ele><time>2026-05-03T15:49:17Z</time></trkpt><trkpt lat="41.82558312475308" lon="13.800591678401334"><ele>1216.0</ele><time>2026-05-03T15:49:19Z</time></trkpt><trkpt lat="41.825548334102805" lon="13.800446075147436"><ele>1215.5</ele><time>2026-05-03T15:49:20.999Z</time></trkpt><trkpt lat="41.825493887737146" lon="13.800303871452888"><ele>1215.0</ele><time>2026-05-03T15:49:22.999Z</time></trkpt><trkpt lat="41.825436785007746" lon="13.800162990046426"><ele>1214.75</ele><time>2026-05-03T15:49:24.999Z</time></trkpt><trkpt lat="41.825375030357655" lon="13.800025128109738"><ele>1214.5</ele><time>2026-05-03T15:49:26.999Z</time></trkpt><trkpt lat="41.82530786209522" lon="13.799906586745642"><ele>1214.25</ele><time>2026-05-03T15:49:28.999Z</time></trkpt><trkpt lat="41.825240879237604" lon="13.799776393647933"><ele>1214.0</ele><time>2026-05-03T15:49:30.999Z</time></trkpt><trkpt lat="41.82519018127842" lon="13.799635189790763"><ele>1213.25</ele><time>2026-05-03T15:49:32.999Z</time></trkpt><trkpt lat="41.82514552794064" lon="13.79947729269821"><ele>1212.5</ele><time>2026-05-03T15:49:34.999Z</time></trkpt><trkpt lat="41.82509047992472" lon="13.799328021991423"><ele>1211.75</ele><time>2026-05-03T15:49:36.999Z</time></trkpt><trkpt lat="41.82503107702072" lon="13.799200745916933"><ele>1211.0</ele><time>2026-05-03T15:49:38.999Z</time></trkpt><trkpt lat="41.82497977306799" lon="13.799064435980304"><ele>1209.8</ele><time>2026-05-03T15:49:40.999Z</time></trkpt><trkpt lat="41.824928116283694" lon="13.798933939922284"><ele>1208.6</ele><time>2026-05-03T15:49:42.999Z</time></trkpt><trkpt lat="41.8248755740949" lon="13.798807053347561"><ele>1207.4</ele><time>2026-05-03T15:49:44.999Z</time></trkpt><trkpt lat="41.82482050875258" lon="13.798694726518814"><ele>1206.2</ele><time>2026-05-03T15:49:46.999Z</time></trkpt><trkpt lat="41.82475948197355" lon="13.798592591661185"><ele>1205.0</ele><time>2026-05-03T15:49:48.999Z</time></trkpt><trkpt lat="41.82469750141114" lon="13.798507144034001"><ele>1205.0</ele><time>2026-05-03T15:49:50.999Z</time></trkpt><trkpt lat="41.824647598204585" lon="13.798412614319123"><ele>1205.0</ele><time>2026-05-03T15:49:52.999Z</time></trkpt><trkpt lat="41.824596682547515" lon="13.798290208960541"><ele>1205.0</ele><time>2026-05-03T15:49:54.999Z</time></trkpt><trkpt lat="41.82453482681907" lon="13.798189379408225"><ele>1205.0</ele><time>2026-05-03T15:49:56.999Z</time></trkpt><trkpt lat="41.82448610087601" lon="13.798134363809696"><ele>1205.0</ele><time>2026-05-03T15:49:58.999Z</time></trkpt><trkpt lat="41.82441730641958" lon="13.79800721965642"><ele>1205.0</ele><time>2026-05-03T15:50:00.999Z</time></trkpt><trkpt lat="41.824347921224934" lon="13.797901998339572"><ele>1205.0</ele><time>2026-05-03T15:50:02.999Z</time></trkpt><trkpt lat="41.82427311921161" lon="13.797823659863262"><ele>1205.0</ele><time>2026-05-03T15:50:04.999Z</time></trkpt><trkpt lat="41.82421043930955" lon="13.797723614151653"><ele>1205.0</ele><time>2026-05-03T15:50:06.999Z</time></trkpt><trkpt lat="41.82413174986365" lon="13.797622589267649"><ele>1205.0</ele><time>2026-05-03T15:50:08.999Z</time></trkpt><trkpt lat="41.82407838509589" lon="13.797517401791392"><ele>1204.2</ele><time>2026-05-03T15:50:10.999Z</time></trkpt><trkpt lat="41.82401603113052" lon="13.797429123343136"><ele>1203.4</ele><time>2026-05-03T15:50:12.999Z</time></trkpt><trkpt lat="41.82395481189238" lon="13.797317382499184"><ele>1202.6</ele><time>2026-05-03T15:50:15Z</time></trkpt><trkpt lat="41.82389900845813" lon="13.797227769245637"><ele>1201.8</ele><time>2026-05-03T15:50:17Z</time></trkpt><trkpt lat="41.82383869177763" lon="13.797123931925785"><ele>1201.0</ele><time>2026-05-03T15:50:19Z</time></trkpt><trkpt lat="41.8237492722695" lon="13.797020115297022"><ele>1201.0</ele><time>2026-05-03T15:50:21Z</time></trkpt><trkpt lat="41.82367319119292" lon="13.79688841705432"><ele>1201.0</ele><time>2026-05-03T15:50:23Z</time></trkpt><trkpt lat="41.82363662891324" lon="13.796813159099587"><ele>1201.0</ele><time>2026-05-03T15:50:24Z</time></trkpt><trkpt lat="41.82360425599844" lon="13.796736735361186"><ele>1201.0</ele><time>2026-05-03T15:50:25Z</time></trkpt><trkpt lat="41.823565424247434" lon="13.796661527836852"><ele>1201.0</ele><time>2026-05-03T15:50:26Z</time></trkpt><trkpt lat="41.82352427972647" lon="13.796588931168454"><ele>1201.0</ele><time>2026-05-03T15:50:27Z</time></trkpt><trkpt lat="41.8234249207454" lon="13.79648760213988"><ele>1200.75</ele><time>2026-05-03T15:50:29Z</time></trkpt><trkpt lat="41.82330955322143" lon="13.79642576049645"><ele>1200.5</ele><time>2026-05-03T15:50:31Z</time></trkpt><trkpt lat="41.82320126986309" lon="13.796369123187494"><ele>1200.25</ele><time>2026-05-03T15:50:33Z</time></trkpt><trkpt lat="41.82310212987511" lon="13.796297157720815"><ele>1200.0</ele><time>2026-05-03T15:50:35Z</time></trkpt><trkpt lat="41.82302473819328" lon="13.796213577906379"><ele>1200.0</ele><time>2026-05-03T15:50:37Z</time></trkpt><trkpt lat="41.82295663425998" lon="13.796132284675908"><ele>1200.0</ele><time>2026-05-03T15:50:39Z</time></trkpt><trkpt lat="41.82290147534018" lon="13.7960708039837"><ele>1200.0</ele><time>2026-05-03T15:50:41Z</time></trkpt><trkpt lat="41.82282054495126" lon="13.795995256758845"><ele>1200.0</ele><time>2026-05-03T15:50:43Z</time></trkpt><trkpt lat="41.822740251240695" lon="13.79593090092898"><ele>1200.0</ele><time>2026-05-03T15:50:45Z</time></trkpt><trkpt lat="41.82266595562101" lon="13.795874516358332"><ele>1200.0</ele><time>2026-05-03T15:50:47Z</time></trkpt><trkpt lat="41.82260863581748" lon="13.79580619646902"><ele>1198.75</ele><time>2026-05-03T15:50:49Z</time></trkpt><trkpt lat="41.82255835902472" lon="13.795695792656462"><ele>1197.5</ele><time>2026-05-03T15:50:51Z</time></trkpt><trkpt lat="41.822505156144146" lon="13.795565196202217"><ele>1196.25</ele><time>2026-05-03T15:50:53Z</time></trkpt><trkpt lat="41.822433545040084" lon="13.795438060119123"><ele>1195.0</ele><time>2026-05-03T15:50:55Z</time></trkpt><trkpt lat="41.822332440880814" lon="13.795335570963372"><ele>1195.0</ele><time>2026-05-03T15:50:57Z</time></trkpt><trkpt lat="41.822268276272155" lon="13.795290672533739"><ele>1195.0</ele><time>2026-05-03T15:50:58Z</time></trkpt><trkpt lat="41.82220724925178" lon="13.795261701354866"><ele>1195.0</ele><time>2026-05-03T15:50:59Z</time></trkpt><trkpt lat="41.822145411909844" lon="13.795219278751667"><ele>1195.0</ele><time>2026-05-03T15:51:00Z</time></trkpt><trkpt lat="41.8220904642138" lon="13.79516390199995"><ele>1195.0</ele><time>2026-05-03T15:51:01Z</time></trkpt><trkpt lat="41.82204111171888" lon="13.795097201798878"><ele>1195.0</ele><time>2026-05-03T15:51:02Z</time></trkpt><trkpt lat="41.82199719226845" lon="13.795024096867415"><ele>1195.0</ele><time>2026-05-03T15:51:03Z</time></trkpt><trkpt lat="41.82196505576066" lon="13.794941758850008"><ele>1194.2</ele><time>2026-05-03T15:51:04Z</time></trkpt><trkpt lat="41.82193721747051" lon="13.79485426900409"><ele>1193.4</ele><time>2026-05-03T15:51:05Z</time></trkpt><trkpt lat="41.821901942082" lon="13.794777220346676"><ele>1192.6</ele><time>2026-05-03T15:51:06Z</time></trkpt><trkpt lat="41.82184056209253" lon="13.794627075705597"><ele>1191.8</ele><time>2026-05-03T15:51:08Z</time></trkpt><trkpt lat="41.82180351600216" lon="13.794550327917667"><ele>1191.0</ele><time>2026-05-03T15:51:09Z</time></trkpt><trkpt lat="41.821733950146125" lon="13.794419130545544"><ele>1191.3333333333333</ele><time>2026-05-03T15:51:11Z</time></trkpt><trkpt lat="41.82165144835368" lon="13.794318466277854"><ele>1191.6666666666667</ele><time>2026-05-03T15:51:13Z</time></trkpt><trkpt lat="41.82156542381511" lon="13.794212030907508"><ele>1192.0</ele><time>2026-05-03T15:51:15Z</time></trkpt><trkpt lat="41.82150615713099" lon="13.79418263507893"><ele>1192.3333333333335</ele><time>2026-05-03T15:51:16Z</time></trkpt><trkpt lat="41.82144060080694" lon="13.7941653208976"><ele>1192.6666666666667</ele><time>2026-05-03T15:51:17Z</time></trkpt><trkpt lat="41.8213753871588" lon="13.79415747944465"><ele>1193.0</ele><time>2026-05-03T15:51:18Z</time></trkpt><trkpt lat="41.82130425562348" lon="13.794164706583082"><ele>1193.0</ele><time>2026-05-03T15:51:19Z</time></trkpt><trkpt lat="41.82123610215223" lon="13.7941673554269"><ele>1193.0</ele><time>2026-05-03T15:51:20Z</time></trkpt><trkpt lat="41.82117185292831" lon="13.794146766044342"><ele>1193.0</ele><time>2026-05-03T15:51:21Z</time></trkpt><trkpt lat="41.821064542635156" lon="13.794057438170123"><ele>1193.0</ele><time>2026-05-03T15:51:23Z</time></trkpt><trkpt lat="41.820970809806155" lon="13.793945970978521"><ele>1193.0</ele><time>2026-05-03T15:51:25Z</time></trkpt><trkpt lat="41.82092065497068" lon="13.793879390593753"><ele>1191.8333333333335</ele><time>2026-05-03T15:51:25.999Z</time></trkpt><trkpt lat="41.820875981291756" lon="13.79381640262154"><ele>1190.6666666666667</ele><time>2026-05-03T15:51:26.999Z</time></trkpt><trkpt lat="41.8207923232952" lon="13.793694410098846"><ele>1189.5</ele><time>2026-05-03T15:51:28.999Z</time></trkpt><trkpt lat="41.8207431928366" lon="13.793630321769314"><ele>1188.3333333333333</ele><time>2026-05-03T15:51:29.999Z</time></trkpt><trkpt lat="41.82069308047169" lon="13.793560547343732"><ele>1187.1666666666665</ele><time>2026-05-03T15:51:30.999Z</time></trkpt><trkpt lat="41.82064068622191" lon="13.793502157491076"><ele>1186.0</ele><time>2026-05-03T15:51:31.999Z</time></trkpt><trkpt lat="41.82058270341628" lon="13.793451872033915"><ele>1185.9999999999998</ele><time>2026-05-03T15:51:32.999Z</time></trkpt><trkpt lat="41.8205269978614" lon="13.793408990525972"><ele>1186.0</ele><time>2026-05-03T15:51:33.999Z</time></trkpt><trkpt lat="41.82046396691198" lon="13.793371091571087"><ele>1186.0</ele><time>2026-05-03T15:51:34.999Z</time></trkpt><trkpt lat="41.820389830329134" lon="13.793292858296972"><ele>1186.0</ele><time>2026-05-03T15:51:35.999Z</time></trkpt><trkpt lat="41.82032764706473" lon="13.79325058171292"><ele>1186.0</ele><time>2026-05-03T15:51:36.999Z</time></trkpt><trkpt lat="41.820268208232534" lon="13.793210699471784"><ele>1185.9999999999998</ele><time>2026-05-03T15:51:37.999Z</time></trkpt><trkpt lat="41.82021134216127" lon="13.793167935856665"><ele>1186.0</ele><time>2026-05-03T15:51:38.999Z</time></trkpt><trkpt lat="41.82015340333791" lon="13.7931212758846"><ele>1185.8571428571427</ele><time>2026-05-03T15:51:39.999Z</time></trkpt><trkpt lat="41.82010231038897" lon="13.793059889998268"><ele>1185.7142857142858</ele><time>2026-05-03T15:51:40.999Z</time></trkpt><trkpt lat="41.82006327238936" lon="13.792984633070756"><ele>1185.5714285714284</ele><time>2026-05-03T15:51:41.999Z</time></trkpt><trkpt lat="41.82003989012122" lon="13.792897553090455"><ele>1185.4285714285713</ele><time>2026-05-03T15:51:42.999Z</time></trkpt><trkpt lat="41.8200098297569" lon="13.792815272405555"><ele>1185.2857142857142</ele><time>2026-05-03T15:51:43.999Z</time></trkpt><trkpt lat="41.819969186321885" lon="13.792738996106092"><ele>1185.142857142857</ele><time>2026-05-03T15:51:44.999Z</time></trkpt><trkpt lat="41.81992724130836" lon="13.792670078643722"><ele>1185.0</ele><time>2026-05-03T15:51:45.999Z</time></trkpt><trkpt lat="41.81984268747588" lon="13.792558619060637"><ele>1185.0</ele><time>2026-05-03T15:51:47.999Z</time></trkpt><trkpt lat="41.81975633497534" lon="13.792441868945977"><ele>1185.0</ele><time>2026-05-03T15:51:49.999Z</time></trkpt><trkpt lat="41.81967396934631" lon="13.792333947275345"><ele>1185.0</ele><time>2026-05-03T15:51:51.999Z</time></trkpt><trkpt lat="41.81957622968177" lon="13.792269522680385"><ele>1185.0</ele><time>2026-05-03T15:51:53.999Z</time></trkpt><trkpt lat="41.81949105146344" lon="13.792184492450186"><ele>1185.0</ele><time>2026-05-03T15:51:55.999Z</time></trkpt><trkpt lat="41.81945233073145" lon="13.792073262565502"><ele>1185.0</ele><time>2026-05-03T15:51:57.999Z</time></trkpt><trkpt lat="41.819391356442345" lon="13.791970640245921"><ele>1185.0</ele><time>2026-05-03T15:51:59.999Z</time></trkpt><trkpt lat="41.819321263311906" lon="13.791877192796292"><ele>1185.0</ele><time>2026-05-03T15:52:01.999Z</time></trkpt><trkpt lat="41.81928085325082" lon="13.791776626938615"><ele>1185.0</ele><time>2026-05-03T15:52:03.999Z</time></trkpt><trkpt lat="41.819211835130474" lon="13.791713247701965"><ele>1183.6666666666667</ele><time>2026-05-03T15:52:05.999Z</time></trkpt><trkpt lat="41.819147449118525" lon="13.791653752321817"><ele>1182.3333333333333</ele><time>2026-05-03T15:52:07.999Z</time></trkpt><trkpt lat="41.81908680276021" lon="13.791596601248758"><ele>1181.0</ele><time>2026-05-03T15:52:09.999Z</time></trkpt><trkpt lat="41.81902751189899" lon="13.79155215846613"><ele>1179.6666666666665</ele><time>2026-05-03T15:52:11.999Z</time></trkpt><trkpt lat="41.81896145278057" lon="13.79148333704326"><ele>1178.3333333333333</ele><time>2026-05-03T15:52:13.999Z</time></trkpt><trkpt lat="41.81887801451821" lon="13.791407881005629"><ele>1177.0</ele><time>2026-05-03T15:52:15.999Z</time></trkpt><trkpt lat="41.818794986420755" lon="13.79134590864008"><ele>1177.0</ele><time>2026-05-03T15:52:17.999Z</time></trkpt><trkpt lat="41.818722752226755" lon="13.791278318337515"><ele>1177.0</ele><time>2026-05-03T15:52:20Z</time></trkpt><trkpt lat="41.8186393408282" lon="13.791233008704257"><ele>1177.0</ele><time>2026-05-03T15:52:22Z</time></trkpt><trkpt lat="41.818562058188505" lon="13.79119186267892"><ele>1177.0</ele><time>2026-05-03T15:52:24Z</time></trkpt><trkpt lat="41.81848163721601" lon="13.791160385674093"><ele>1177.0</ele><time>2026-05-03T15:52:26Z</time></trkpt><trkpt lat="41.81839993778838" lon="13.79110849040074"><ele>1177.0</ele><time>2026-05-03T15:52:28Z</time></trkpt><trkpt lat="41.81831942157123" lon="13.791046856026448"><ele>1177.8333333333333</ele><time>2026-05-03T15:52:30Z</time></trkpt><trkpt lat="41.81825260318206" lon="13.790997386822788"><ele>1178.6666666666665</ele><time>2026-05-03T15:52:32Z</time></trkpt><trkpt lat="41.81818389663137" lon="13.790963218473111"><ele>1179.5</ele><time>2026-05-03T15:52:34Z</time></trkpt><trkpt lat="41.81811095161079" lon="13.790951553977383"><ele>1180.3333333333333</ele><time>2026-05-03T15:52:36Z</time></trkpt><trkpt lat="41.818035642959934" lon="13.790962625667479"><ele>1181.1666666666667</ele><time>2026-05-03T15:52:38Z</time></trkpt><trkpt lat="41.81794821901692" lon="13.790993010846114"><ele>1182.0</ele><time>2026-05-03T15:52:40Z</time></trkpt><trkpt lat="41.81788497955843" lon="13.791031026906918"><ele>1182.0</ele><time>2026-05-03T15:52:42Z</time></trkpt><trkpt lat="41.8178001344168" lon="13.791077915699772"><ele>1182.0</ele><time>2026-05-03T15:52:45Z</time></trkpt><trkpt lat="41.81773948297411" lon="13.791122229460761"><ele>1182.0</ele><time>2026-05-03T15:52:47Z</time></trkpt><trkpt lat="41.817674378118795" lon="13.791154928969659"><ele>1182.0</ele><time>2026-05-03T15:52:49Z</time></trkpt><trkpt lat="41.81760470663888" lon="13.791201229940217"><ele>1182.0</ele><time>2026-05-03T15:52:51Z</time></trkpt><trkpt lat="41.81751833796541" lon="13.791255298153471"><ele>1182.0</ele><time>2026-05-03T15:52:53Z</time></trkpt><trkpt lat="41.817437216311596" lon="13.791311948868037"><ele>1181.8333333333333</ele><time>2026-05-03T15:52:55Z</time></trkpt><trkpt lat="41.81736260734187" lon="13.791347284073558"><ele>1181.6666666666667</ele><time>2026-05-03T15:52:57Z</time></trkpt><trkpt lat="41.81728228791328" lon="13.791385940599868"><ele>1181.5</ele><time>2026-05-03T15:52:59Z</time></trkpt><trkpt lat="41.8172005599103" lon="13.791428861057808"><ele>1181.3333333333335</ele><time>2026-05-03T15:53:01Z</time></trkpt><trkpt lat="41.817122309497414" lon="13.791480864632645"><ele>1181.1666666666667</ele><time>2026-05-03T15:53:03Z</time></trkpt><trkpt lat="41.81703058360341" lon="13.791511833218213"><ele>1181.0</ele><time>2026-05-03T15:53:05Z</time></trkpt><trkpt lat="41.81694091215479" lon="13.79155730145345"><ele>1181.0</ele><time>2026-05-03T15:53:07Z</time></trkpt><trkpt lat="41.81684289642226" lon="13.791595896559187"><ele>1181.0</ele><time>2026-05-03T15:53:09Z</time></trkpt><trkpt lat="41.81674951537906" lon="13.791628064316996"><ele>1181.0</ele><time>2026-05-03T15:53:11Z</time></trkpt><trkpt lat="41.816661333600415" lon="13.791652247243107"><ele>1181.0</ele><time>2026-05-03T15:53:13Z</time></trkpt><trkpt lat="41.81658808197454" lon="13.7916881645216"><ele>1181.0</ele><time>2026-05-03T15:53:15Z</time></trkpt><trkpt lat="41.8165024716054" lon="13.791679780810952"><ele>1179.5</ele><time>2026-05-03T15:53:17Z</time></trkpt><trkpt lat="41.81643620613643" lon="13.791668093202194"><ele>1178.0</ele><time>2026-05-03T15:53:19Z</time></trkpt><trkpt lat="41.816370228960075" lon="13.791640131522358"><ele>1176.5</ele><time>2026-05-03T15:53:21Z</time></trkpt><trkpt lat="41.81630242605271" lon="13.79160341874673"><ele>1175.0</ele><time>2026-05-03T15:53:23Z</time></trkpt><trkpt lat="41.816220122710064" lon="13.791566321087915"><ele>1173.5</ele><time>2026-05-03T15:53:25Z</time></trkpt><trkpt lat="41.81612053392346" lon="13.791534324605875"><ele>1172.0</ele><time>2026-05-03T15:53:27Z</time></trkpt><trkpt lat="41.81603242034632" lon="13.791506227870272"><ele>1172.4</ele><time>2026-05-03T15:53:29Z</time></trkpt><trkpt lat="41.81593240650403" lon="13.791468536723086"><ele>1172.8000000000002</ele><time>2026-05-03T15:53:30.999Z</time></trkpt><trkpt lat="41.81583876680152" lon="13.791419991996943"><ele>1173.2</ele><time>2026-05-03T15:53:32.999Z</time></trkpt><trkpt lat="41.81575397919204" lon="13.791366320555817"><ele>1173.6000000000001</ele><time>2026-05-03T15:53:34.999Z</time></trkpt><trkpt lat="41.815665367898596" lon="13.791319200752342"><ele>1174.0</ele><time>2026-05-03T15:53:36.999Z</time></trkpt><trkpt lat="41.81558383714937" lon="13.791281187580827"><ele>1174.0</ele><time>2026-05-03T15:53:38.999Z</time></trkpt><trkpt lat="41.8155029219328" lon="13.791252753923946"><ele>1174.0</ele><time>2026-05-03T15:53:40.999Z</time></trkpt><trkpt lat="41.815432405759175" lon="13.791227554688676"><ele>1174.0</ele><time>2026-05-03T15:53:42.999Z</time></trkpt><trkpt lat="41.815367944887804" lon="13.791200226719843"><ele>1174.0</ele><time>2026-05-03T15:53:44.999Z</time></trkpt><trkpt lat="41.81530293982978" lon="13.79119015472198"><ele>1174.0</ele><time>2026-05-03T15:53:46.999Z</time></trkpt><trkpt lat="41.815215974471585" lon="13.791194121976938"><ele>1174.0</ele><time>2026-05-03T15:53:49.999Z</time></trkpt><trkpt lat="41.81514251060688" lon="13.791202285710169"><ele>1173.7142857142858</ele><time>2026-05-03T15:53:52.999Z</time></trkpt><trkpt lat="41.81507537153554" lon="13.791229908358664"><ele>1173.4285714285716</ele><time>2026-05-03T15:53:55.999Z</time></trkpt><trkpt lat="41.81501197856601" lon="13.79124905764496"><ele>1173.142857142857</ele><time>2026-05-03T15:53:58.999Z</time></trkpt><trkpt lat="41.81493295461354" lon="13.791259427016685"><ele>1172.857142857143</ele><time>2026-05-03T15:54:02.999Z</time></trkpt><trkpt lat="41.814857690572325" lon="13.79126850871118"><ele>1172.5714285714284</ele><time>2026-05-03T15:54:06.999Z</time></trkpt><trkpt lat="41.81479039087651" lon="13.791283153535181"><ele>1172.2857142857142</ele><time>2026-05-03T15:54:10.999Z</time></trkpt><trkpt lat="41.814722412526706" lon="13.791283119030528"><ele>1172.0</ele><time>2026-05-03T15:54:15.999Z</time></trkpt><trkpt lat="41.81465028999426" lon="13.791331432525745"><ele>1172.0</ele><time>2026-05-03T15:54:21.999Z</time></trkpt><trkpt lat="41.81456688446684" lon="13.791346119102194"><ele>1172.0</ele><time>2026-05-03T15:54:23.999Z</time></trkpt><trkpt lat="41.814471657422786" lon="13.791352899261911"><ele>1172.0</ele><time>2026-05-03T15:54:27Z</time></trkpt><trkpt lat="41.814401967795455" lon="13.791358874995684"><ele>1172.0</ele><time>2026-05-03T15:54:29Z</time></trkpt><trkpt lat="41.814311369202045" lon="13.791366245232448"><ele>1172.0</ele><time>2026-05-03T15:54:32Z</time></trkpt><trkpt lat="41.814210824861135" lon="13.791390992356725"><ele>1172.0</ele><time>2026-05-03T15:54:34Z</time></trkpt><trkpt lat="41.81414470746281" lon="13.791394596266551"><ele>1170.8333333333335</ele><time>2026-05-03T15:54:36Z</time></trkpt><trkpt lat="41.81407750231675" lon="13.791404260064304"><ele>1169.6666666666667</ele><time>2026-05-03T15:54:38Z</time></trkpt><trkpt lat="41.813979639499486" lon="13.791414103368655"><ele>1168.5</ele><time>2026-05-03T15:54:40Z</time></trkpt><trkpt lat="41.81388941555132" lon="13.791444706801627"><ele>1167.3333333333333</ele><time>2026-05-03T15:54:42Z</time></trkpt><trkpt lat="41.81380123639185" lon="13.791475070098725"><ele>1166.1666666666665</ele><time>2026-05-03T15:54:44Z</time></trkpt><trkpt lat="41.813705541564254" lon="13.791478293306199"><ele>1165.0</ele><time>2026-05-03T15:54:46Z</time></trkpt><trkpt lat="41.813609732740154" lon="13.791498977686292"><ele>1165.0</ele><time>2026-05-03T15:54:48Z</time></trkpt><trkpt lat="41.813506743404666" lon="13.791520298105901"><ele>1165.0</ele><time>2026-05-03T15:54:50Z</time></trkpt><trkpt lat="41.81339967411921" lon="13.791531898337036"><ele>1165.0</ele><time>2026-05-03T15:54:52Z</time></trkpt><trkpt lat="41.813293387703034" lon="13.791547147525455"><ele>1165.0</ele><time>2026-05-03T15:54:54Z</time></trkpt><trkpt lat="41.81318311693854" lon="13.791562114312589"><ele>1165.0</ele><time>2026-05-03T15:54:56Z</time></trkpt><trkpt lat="41.813079774536995" lon="13.791572504688999"><ele>1164.0</ele><time>2026-05-03T15:54:58Z</time></trkpt><trkpt lat="41.812971794156034" lon="13.791583220465665"><ele>1163.0</ele><time>2026-05-03T15:55:00Z</time></trkpt><trkpt lat="41.8128592983489" lon="13.79158647737091"><ele>1162.0</ele><time>2026-05-03T15:55:02Z</time></trkpt><trkpt lat="41.81274800616594" lon="13.791590044857575"><ele>1161.0</ele><time>2026-05-03T15:55:04Z</time></trkpt><trkpt lat="41.812633462263754" lon="13.791598486982977"><ele>1160.0</ele><time>2026-05-03T15:55:06Z</time></trkpt><trkpt lat="41.81253039444366" lon="13.791609025320506"><ele>1160.0</ele><time>2026-05-03T15:55:08Z</time></trkpt><trkpt lat="41.81242572268276" lon="13.791619106272853"><ele>1160.0</ele><time>2026-05-03T15:55:10Z</time></trkpt><trkpt lat="41.81233154372206" lon="13.79164045103395"><ele>1160.0</ele><time>2026-05-03T15:55:12Z</time></trkpt><trkpt lat="41.81234657548561" lon="13.791516284098414"><ele>1160.0</ele><time>2026-05-03T15:55:13Z</time></trkpt><trkpt lat="41.81233873140262" lon="13.791378834627828"><ele>1160.0</ele><time>2026-05-03T15:55:15Z</time></trkpt><trkpt lat="41.81233240427325" lon="13.79126559202147"><ele>1160.0</ele><time>2026-05-03T15:55:17Z</time></trkpt><trkpt lat="41.812242509986135" lon="13.791179681118289"><ele>1160.0</ele><time>2026-05-03T15:55:19Z</time></trkpt><trkpt lat="41.8121395365876" lon="13.791189434112145"><ele>1160.0</ele><time>2026-05-03T15:55:21Z</time></trkpt><trkpt lat="41.812033767006945" lon="13.791205659106668"><ele>1160.0</ele><time>2026-05-03T15:55:23Z</time></trkpt><trkpt lat="41.81191802569585" lon="13.791203294804845"><ele>1160.0</ele><time>2026-05-03T15:55:25Z</time></trkpt><trkpt lat="41.81180793145126" lon="13.791212972459089"><ele>1160.0</ele><time>2026-05-03T15:55:27Z</time></trkpt><trkpt lat="41.81170237909468" lon="13.791219945235197"><ele>1160.0</ele><time>2026-05-03T15:55:29Z</time></trkpt><trkpt lat="41.81159961671008" lon="13.791216759660202"><ele>1160.0</ele><time>2026-05-03T15:55:31Z</time></trkpt><trkpt lat="41.811501269773096" lon="13.791216195313394"><ele>1160.0</ele><time>2026-05-03T15:55:33Z</time></trkpt><trkpt lat="41.81140357691537" lon="13.791214122739612"><ele>1160.0</ele><time>2026-05-03T15:55:35Z</time></trkpt><trkpt lat="41.8113046824292" lon="13.791199241953747"><ele>1160.0</ele><time>2026-05-03T15:55:36.999Z</time></trkpt><trkpt lat="41.81120494456391" lon="13.79118148190798"><ele>1160.0</ele><time>2026-05-03T15:55:38.999Z</time></trkpt><trkpt lat="41.811102727571075" lon="13.7911537926454"><ele>1160.0</ele><time>2026-05-03T15:55:40.999Z</time></trkpt><trkpt lat="41.81100062943057" lon="13.791129202525932"><ele>1160.0</ele><time>2026-05-03T15:55:42.999Z</time></trkpt><trkpt lat="41.81090185232107" lon="13.791100287164891"><ele>1160.0</ele><time>2026-05-03T15:55:44.999Z</time></trkpt><trkpt lat="41.8108041684436" lon="13.791075691454381"><ele>1159.6</ele><time>2026-05-03T15:55:46.999Z</time></trkpt><trkpt lat="41.810699293081434" lon="13.791060066511402"><ele>1159.2</ele><time>2026-05-03T15:55:48.999Z</time></trkpt><trkpt lat="41.810607511991144" lon="13.791020759855282"><ele>1158.8</ele><time>2026-05-03T15:55:50.999Z</time></trkpt><trkpt lat="41.81051694981912" lon="13.791004583156868"><ele>1158.4</ele><time>2026-05-03T15:55:52.999Z</time></trkpt><trkpt lat="41.810432293901734" lon="13.790977323005713"><ele>1158.0</ele><time>2026-05-03T15:55:54.999Z</time></trkpt><trkpt lat="41.81035219222435" lon="13.79095489421242"><ele>1158.0</ele><time>2026-05-03T15:55:56.999Z</time></trkpt><trkpt lat="41.81027276383379" lon="13.790933921530225"><ele>1158.0</ele><time>2026-05-03T15:55:58.999Z</time></trkpt><trkpt lat="41.81018809173666" lon="13.790927515440329"><ele>1158.0</ele><time>2026-05-03T15:56:00.999Z</time></trkpt><trkpt lat="41.810114331501005" lon="13.790909827378945"><ele>1158.0</ele><time>2026-05-03T15:56:02.999Z</time></trkpt><trkpt lat="41.810042003026346" lon="13.790892001785322"><ele>1158.0</ele><time>2026-05-03T15:56:04.999Z</time></trkpt><trkpt lat="41.809974427632945" lon="13.790873486490586"><ele>1158.0</ele><time>2026-05-03T15:56:06.999Z</time></trkpt><trkpt lat="41.809904772082874" lon="13.79085818031091"><ele>1157.6666666666667</ele><time>2026-05-03T15:56:08.999Z</time></trkpt><trkpt lat="41.809840365733066" lon="13.790848749046072"><ele>1157.3333333333333</ele><time>2026-05-03T15:56:10.999Z</time></trkpt><trkpt lat="41.80974427431072" lon="13.7908342145018"><ele>1157.0</ele><time>2026-05-03T15:56:13.999Z</time></trkpt><trkpt lat="41.80966228589886" lon="13.790819906096788"><ele>1156.6666666666665</ele><time>2026-05-03T15:56:15.999Z</time></trkpt><trkpt lat="41.809563842530736" lon="13.790788613194934"><ele>1156.3333333333333</ele><time>2026-05-03T15:56:17.999Z</time></trkpt><trkpt lat="41.80946989637208" lon="13.790767541003119"><ele>1156.0</ele><time>2026-05-03T15:56:19.999Z</time></trkpt><trkpt lat="41.80938079488207" lon="13.790746085059043"><ele>1155.8</ele><time>2026-05-03T15:56:21.999Z</time></trkpt><trkpt lat="41.809300632756056" lon="13.790721405307568"><ele>1155.6</ele><time>2026-05-03T15:56:23.999Z</time></trkpt><trkpt lat="41.809232497846914" lon="13.79069153633545"><ele>1155.4</ele><time>2026-05-03T15:56:25.999Z</time></trkpt><trkpt lat="41.80916167070345" lon="13.79061047681166"><ele>1155.2</ele><time>2026-05-03T15:56:27.999Z</time></trkpt><trkpt lat="41.809094097331794" lon="13.790508998873058"><ele>1155.0</ele><time>2026-05-03T15:56:29.999Z</time></trkpt><trkpt lat="41.80903712947973" lon="13.790395451140817"><ele>1155.0</ele><time>2026-05-03T15:56:32Z</time></trkpt><trkpt lat="41.80899118259382" lon="13.790278987717555"><ele>1155.0</ele><time>2026-05-03T15:56:34Z</time></trkpt><trkpt lat="41.80893862284116" lon="13.790178671366773"><ele>1155.0</ele><time>2026-05-03T15:56:36Z</time></trkpt><trkpt lat="41.808886065656345" lon="13.790086782989011"><ele>1155.0</ele><time>2026-05-03T15:56:38Z</time></trkpt><trkpt lat="41.808850296694665" lon="13.789991227368949"><ele>1155.0</ele><time>2026-05-03T15:56:40Z</time></trkpt><trkpt lat="41.80881053627314" lon="13.78990370563462"><ele>1155.0</ele><time>2026-05-03T15:56:42Z</time></trkpt><trkpt lat="41.80878006382935" lon="13.78981981156659"><ele>1156.0</ele><time>2026-05-03T15:56:44Z</time></trkpt><trkpt lat="41.80874514083644" lon="13.78974857725027"><ele>1156.0</ele><time>2026-05-03T15:56:46Z</time></trkpt><trkpt lat="41.808699921619414" lon="13.789646407823447"><ele>1156.0</ele><time>2026-05-03T15:56:49Z</time></trkpt><trkpt lat="41.80866744674898" lon="13.789545387026763"><ele>1156.0</ele><time>2026-05-03T15:56:52Z</time></trkpt><trkpt lat="41.80863573579957" lon="13.789469111143893"><ele>1156.0</ele><time>2026-05-03T15:56:55Z</time></trkpt><trkpt lat="41.808670634973076" lon="13.789552276722407"><ele>1156.0</ele><time>2026-05-03T15:57:27Z</time></trkpt></trkseg></trk></gpx>